<?xml version="1.0" encoding="UTF-8" standalone="no" ?>
<gpx xmlns="http://www.topografix.com/GPX/1/1" xmlns:xsi="http://www.w3.org/2001/XMLSchema-instance" xsi:schemaLocation="http://www.topografix.com/GPX/1/1 http://www.topografix.com/GPX/1/1/gpx.xsd" version="1.1" creator="VisuGPX - https://www.visugpx.com">
  <metadata>
    <name>ASLPM marche à Aytré le 27 Avril 2015</name>
    <desc><![CDATA[Marche à Aytré le 27 Avril 2015]]></desc>
  </metadata>
  <trk>
    <name><![CDATA[Marche Aytré]]></name>
    <trkseg>
      <trkpt lat="46.12611" lon="-1.1282">
        <time>2015-04-27T07:12:44.000Z</time>
      </trkpt>
      <trkpt lat="46.12608" lon="-1.12811">
        <time>2015-04-27T07:12:50.000Z</time>
      </trkpt>
      <trkpt lat="46.126" lon="-1.12774">
        <ele>2.3</ele>
        <time>2015-04-27T07:13:15.000Z</time>
      </trkpt>
      <trkpt lat="46.12596" lon="-1.12759">
        <ele>2.3</ele>
        <time>2015-04-27T07:13:25.000Z</time>
      </trkpt>
      <trkpt lat="46.12592" lon="-1.12754">
        <ele>2.2</ele>
        <time>2015-04-27T07:13:40.000Z</time>
      </trkpt>
      <trkpt lat="46.12586" lon="-1.12754">
        <ele>2</ele>
        <time>2015-04-27T07:13:48.000Z</time>
      </trkpt>
      <trkpt lat="46.12576" lon="-1.12752">
        <ele>1.9</ele>
        <time>2015-04-27T07:14:00.000Z</time>
      </trkpt>
      <trkpt lat="46.12569" lon="-1.12751">
        <ele>2</ele>
        <time>2015-04-27T07:14:07.000Z</time>
      </trkpt>
      <trkpt lat="46.12561" lon="-1.12748">
        <ele>2</ele>
        <time>2015-04-27T07:14:15.000Z</time>
      </trkpt>
      <trkpt lat="46.12537" lon="-1.12729">
        <ele>2</ele>
        <time>2015-04-27T07:14:37.000Z</time>
      </trkpt>
      <trkpt lat="46.12523" lon="-1.12719">
        <ele>2</ele>
        <time>2015-04-27T07:14:49.000Z</time>
      </trkpt>
      <trkpt lat="46.12509" lon="-1.12712">
        <ele>2</ele>
        <time>2015-04-27T07:15:01.000Z</time>
      </trkpt>
      <trkpt lat="46.12497" lon="-1.12705">
        <ele>2</ele>
        <time>2015-04-27T07:15:11.000Z</time>
      </trkpt>
      <trkpt lat="46.12481" lon="-1.12696">
        <ele>2</ele>
        <time>2015-04-27T07:15:23.000Z</time>
      </trkpt>
      <trkpt lat="46.12469" lon="-1.1269">
        <ele>2</ele>
        <time>2015-04-27T07:15:33.000Z</time>
      </trkpt>
      <trkpt lat="46.12454" lon="-1.12683">
        <ele>2</ele>
        <time>2015-04-27T07:15:44.000Z</time>
      </trkpt>
      <trkpt lat="46.12441" lon="-1.12677">
        <ele>1.89</ele>
        <time>2015-04-27T07:15:54.000Z</time>
      </trkpt>
      <trkpt lat="46.12428" lon="-1.12671">
        <ele>1.41</ele>
        <time>2015-04-27T07:16:04.000Z</time>
      </trkpt>
      <trkpt lat="46.12416" lon="-1.12665">
        <ele>1.2</ele>
        <time>2015-04-27T07:16:14.000Z</time>
      </trkpt>
      <trkpt lat="46.12403" lon="-1.12658">
        <ele>1.5</ele>
        <time>2015-04-27T07:16:24.000Z</time>
      </trkpt>
      <trkpt lat="46.12386" lon="-1.12651">
        <ele>1.88</ele>
        <time>2015-04-27T07:16:37.000Z</time>
      </trkpt>
      <trkpt lat="46.12377" lon="-1.12647">
        <ele>1.59</ele>
        <time>2015-04-27T07:16:43.000Z</time>
      </trkpt>
      <trkpt lat="46.12373" lon="-1.12645">
        <ele>1.42</ele>
        <time>2015-04-27T07:16:47.000Z</time>
      </trkpt>
      <trkpt lat="46.12355" lon="-1.12638">
        <ele>1.1</ele>
        <time>2015-04-27T07:17:00.000Z</time>
      </trkpt>
      <trkpt lat="46.12341" lon="-1.12631">
        <ele>1.4</ele>
        <time>2015-04-27T07:17:11.000Z</time>
      </trkpt>
      <trkpt lat="46.1233" lon="-1.12626">
        <ele>1.4</ele>
        <time>2015-04-27T07:17:19.000Z</time>
      </trkpt>
      <trkpt lat="46.12312" lon="-1.12619">
        <ele>1.7</ele>
        <time>2015-04-27T07:17:32.000Z</time>
      </trkpt>
      <trkpt lat="46.12299" lon="-1.12614">
        <ele>1.76</ele>
        <time>2015-04-27T07:17:42.000Z</time>
      </trkpt>
      <trkpt lat="46.12284" lon="-1.12608">
        <ele>1.3</ele>
        <time>2015-04-27T07:17:53.000Z</time>
      </trkpt>
      <trkpt lat="46.1227" lon="-1.12602">
        <ele>1.3</ele>
        <time>2015-04-27T07:18:04.000Z</time>
      </trkpt>
      <trkpt lat="46.12255" lon="-1.12597">
        <ele>1.5</ele>
        <time>2015-04-27T07:18:15.000Z</time>
      </trkpt>
      <trkpt lat="46.12238" lon="-1.12591">
        <ele>1.59</ele>
        <time>2015-04-27T07:18:28.000Z</time>
      </trkpt>
      <trkpt lat="46.12223" lon="-1.12584">
        <ele>1.03</ele>
        <time>2015-04-27T07:18:40.000Z</time>
      </trkpt>
      <trkpt lat="46.12208" lon="-1.12579">
        <ele>1.2</ele>
        <time>2015-04-27T07:18:51.000Z</time>
      </trkpt>
      <trkpt lat="46.12192" lon="-1.12572">
        <ele>1.4</ele>
        <time>2015-04-27T07:19:03.000Z</time>
      </trkpt>
      <trkpt lat="46.12175" lon="-1.12566">
        <ele>1.6</ele>
        <time>2015-04-27T07:19:16.000Z</time>
      </trkpt>
      <trkpt lat="46.12159" lon="-1.1256">
        <ele>1.72</ele>
        <time>2015-04-27T07:19:28.000Z</time>
      </trkpt>
      <trkpt lat="46.1214" lon="-1.12553">
        <ele>1.2</ele>
        <time>2015-04-27T07:19:42.000Z</time>
      </trkpt>
      <trkpt lat="46.12125" lon="-1.12548">
        <ele>1.4</ele>
        <time>2015-04-27T07:19:54.000Z</time>
      </trkpt>
      <trkpt lat="46.12117" lon="-1.12546">
        <ele>1.4</ele>
        <time>2015-04-27T07:20:01.000Z</time>
      </trkpt>
      <trkpt lat="46.1211" lon="-1.12543">
        <ele>1.4</ele>
        <time>2015-04-27T07:20:07.000Z</time>
      </trkpt>
      <trkpt lat="46.12094" lon="-1.12539">
        <ele>1.6</ele>
        <time>2015-04-27T07:20:19.000Z</time>
      </trkpt>
      <trkpt lat="46.12077" lon="-1.12535">
        <ele>1.76</ele>
        <time>2015-04-27T07:20:32.000Z</time>
      </trkpt>
      <trkpt lat="46.12063" lon="-1.1253">
        <ele>1.27</ele>
        <time>2015-04-27T07:20:43.000Z</time>
      </trkpt>
      <trkpt lat="46.12048" lon="-1.12526">
        <ele>1.1</ele>
        <time>2015-04-27T07:20:54.000Z</time>
      </trkpt>
      <trkpt lat="46.12039" lon="-1.12523">
        <ele>1.2</ele>
        <time>2015-04-27T07:21:02.000Z</time>
      </trkpt>
      <trkpt lat="46.12022" lon="-1.12518">
        <ele>1.3</ele>
        <time>2015-04-27T07:21:15.000Z</time>
      </trkpt>
      <trkpt lat="46.12009" lon="-1.12514">
        <ele>1.5</ele>
        <time>2015-04-27T07:21:25.000Z</time>
      </trkpt>
      <trkpt lat="46.12" lon="-1.12512">
        <ele>1.99</ele>
        <time>2015-04-27T07:21:33.000Z</time>
      </trkpt>
      <trkpt lat="46.11985" lon="-1.12508">
        <ele>1.45</ele>
        <time>2015-04-27T07:21:44.000Z</time>
      </trkpt>
      <trkpt lat="46.11972" lon="-1.12504">
        <ele>1</ele>
        <time>2015-04-27T07:21:53.000Z</time>
      </trkpt>
      <trkpt lat="46.11957" lon="-1.12501">
        <ele>1</ele>
        <time>2015-04-27T07:22:04.000Z</time>
      </trkpt>
      <trkpt lat="46.11942" lon="-1.12497">
        <ele>1.1</ele>
        <time>2015-04-27T07:22:14.000Z</time>
      </trkpt>
      <trkpt lat="46.11924" lon="-1.12492">
        <ele>1.3</ele>
        <time>2015-04-27T07:22:26.000Z</time>
      </trkpt>
      <trkpt lat="46.11906" lon="-1.12488">
        <ele>1.3</ele>
        <time>2015-04-27T07:22:38.000Z</time>
      </trkpt>
      <trkpt lat="46.11892" lon="-1.12485">
        <ele>1.1</ele>
        <time>2015-04-27T07:22:48.000Z</time>
      </trkpt>
      <trkpt lat="46.11878" lon="-1.12481">
        <ele>1</ele>
        <time>2015-04-27T07:22:58.000Z</time>
      </trkpt>
      <trkpt lat="46.11862" lon="-1.12476">
        <ele>1</ele>
        <time>2015-04-27T07:23:09.000Z</time>
      </trkpt>
      <trkpt lat="46.11845" lon="-1.12473">
        <ele>1</ele>
        <time>2015-04-27T07:23:21.000Z</time>
      </trkpt>
      <trkpt lat="46.11828" lon="-1.1247">
        <ele>1.1</ele>
        <time>2015-04-27T07:23:31.000Z</time>
      </trkpt>
      <trkpt lat="46.11813" lon="-1.12467">
        <ele>1.2</ele>
        <time>2015-04-27T07:23:41.000Z</time>
      </trkpt>
      <trkpt lat="46.11799" lon="-1.12465">
        <ele>1.3</ele>
        <time>2015-04-27T07:23:50.000Z</time>
      </trkpt>
      <trkpt lat="46.1178" lon="-1.12461">
        <ele>1.4</ele>
        <time>2015-04-27T07:24:02.000Z</time>
      </trkpt>
      <trkpt lat="46.11762" lon="-1.12458">
        <ele>2</ele>
        <time>2015-04-27T07:24:13.000Z</time>
      </trkpt>
      <trkpt lat="46.11735" lon="-1.12456">
        <ele>1.46</ele>
        <time>2015-04-27T07:24:29.000Z</time>
      </trkpt>
      <trkpt lat="46.11719" lon="-1.12454">
        <ele>1</ele>
        <time>2015-04-27T07:24:39.000Z</time>
      </trkpt>
      <trkpt lat="46.11703" lon="-1.12452">
        <ele>1</ele>
        <time>2015-04-27T07:24:48.000Z</time>
      </trkpt>
      <trkpt lat="46.11689" lon="-1.12449">
        <ele>1</ele>
        <time>2015-04-27T07:24:57.000Z</time>
      </trkpt>
      <trkpt lat="46.11672" lon="-1.12448">
        <ele>1</ele>
        <time>2015-04-27T07:25:07.000Z</time>
      </trkpt>
      <trkpt lat="46.11655" lon="-1.12444">
        <ele>1</ele>
        <time>2015-04-27T07:25:17.000Z</time>
      </trkpt>
      <trkpt lat="46.1164" lon="-1.12441">
        <ele>1.1</ele>
        <time>2015-04-27T07:25:27.000Z</time>
      </trkpt>
      <trkpt lat="46.11614" lon="-1.12437">
        <ele>2</ele>
        <time>2015-04-27T07:25:43.000Z</time>
      </trkpt>
      <trkpt lat="46.116" lon="-1.12433">
        <ele>2</ele>
        <time>2015-04-27T07:25:52.000Z</time>
      </trkpt>
      <trkpt lat="46.11587" lon="-1.12431">
        <ele>2</ele>
        <time>2015-04-27T07:26:00.000Z</time>
      </trkpt>
      <trkpt lat="46.11572" lon="-1.1243">
        <ele>2</ele>
        <time>2015-04-27T07:26:10.000Z</time>
      </trkpt>
      <trkpt lat="46.11559" lon="-1.1243">
        <ele>2</ele>
        <time>2015-04-27T07:26:19.000Z</time>
      </trkpt>
      <trkpt lat="46.11542" lon="-1.12428">
        <ele>2</ele>
        <time>2015-04-27T07:26:30.000Z</time>
      </trkpt>
      <trkpt lat="46.11526" lon="-1.12427">
        <ele>2</ele>
        <time>2015-04-27T07:26:40.000Z</time>
      </trkpt>
      <trkpt lat="46.11498" lon="-1.12427">
        <ele>1.94</ele>
        <time>2015-04-27T07:26:59.000Z</time>
      </trkpt>
      <trkpt lat="46.11487" lon="-1.12427">
        <ele>1.53</ele>
        <time>2015-04-27T07:27:07.000Z</time>
      </trkpt>
      <trkpt lat="46.11474" lon="-1.12428">
        <ele>1.07</ele>
        <time>2015-04-27T07:27:16.000Z</time>
      </trkpt>
      <trkpt lat="46.1146" lon="-1.12428">
        <ele>1</ele>
        <time>2015-04-27T07:27:26.000Z</time>
      </trkpt>
      <trkpt lat="46.11442" lon="-1.12429">
        <ele>1</ele>
        <time>2015-04-27T07:27:38.000Z</time>
      </trkpt>
      <trkpt lat="46.11429" lon="-1.12429">
        <ele>1</ele>
        <time>2015-04-27T07:27:47.000Z</time>
      </trkpt>
      <trkpt lat="46.11416" lon="-1.12429">
        <ele>1.01</ele>
        <time>2015-04-27T07:27:56.000Z</time>
      </trkpt>
      <trkpt lat="46.11403" lon="-1.1243">
        <ele>1.49</ele>
        <time>2015-04-27T07:28:05.000Z</time>
      </trkpt>
      <trkpt lat="46.11391" lon="-1.12431">
        <ele>1.94</ele>
        <time>2015-04-27T07:28:14.000Z</time>
      </trkpt>
      <trkpt lat="46.11377" lon="-1.12432">
        <ele>1.5</ele>
        <time>2015-04-27T07:28:23.000Z</time>
      </trkpt>
      <trkpt lat="46.1136" lon="-1.12433">
        <ele>1.4</ele>
        <time>2015-04-27T07:28:35.000Z</time>
      </trkpt>
      <trkpt lat="46.11347" lon="-1.12434">
        <ele>1.4</ele>
        <time>2015-04-27T07:28:45.000Z</time>
      </trkpt>
      <trkpt lat="46.11339" lon="-1.12434">
        <ele>1.4</ele>
        <time>2015-04-27T07:28:53.000Z</time>
      </trkpt>
      <trkpt lat="46.11332" lon="-1.12433">
        <ele>1.4</ele>
        <time>2015-04-27T07:29:00.000Z</time>
      </trkpt>
      <trkpt lat="46.11324" lon="-1.12428">
        <ele>1.8</ele>
        <time>2015-04-27T07:29:08.000Z</time>
      </trkpt>
      <trkpt lat="46.11322" lon="-1.12427">
        <ele>1.9</ele>
        <time>2015-04-27T07:29:10.000Z</time>
      </trkpt>
      <trkpt lat="46.11321" lon="-1.12425">
        <ele>2</ele>
        <time>2015-04-27T07:29:14.000Z</time>
      </trkpt>
      <trkpt lat="46.11316" lon="-1.12422">
        <ele>2.3</ele>
        <time>2015-04-27T07:29:22.000Z</time>
      </trkpt>
      <trkpt lat="46.11314" lon="-1.12418">
        <ele>2.6</ele>
        <time>2015-04-27T07:29:29.000Z</time>
      </trkpt>
      <trkpt lat="46.11306" lon="-1.12412">
        <ele>3.2</ele>
        <time>2015-04-27T07:29:43.000Z</time>
      </trkpt>
      <trkpt lat="46.11302" lon="-1.12407">
        <ele>3.4</ele>
        <time>2015-04-27T07:29:50.000Z</time>
      </trkpt>
      <trkpt lat="46.11298" lon="-1.12403">
        <ele>3.6</ele>
        <time>2015-04-27T07:29:57.000Z</time>
      </trkpt>
      <trkpt lat="46.11296" lon="-1.12403">
        <ele>3.7</ele>
        <time>2015-04-27T07:30:04.000Z</time>
      </trkpt>
      <trkpt lat="46.11295" lon="-1.12403">
        <ele>3.7</ele>
        <time>2015-04-27T07:30:56.000Z</time>
      </trkpt>
      <trkpt lat="46.11295" lon="-1.12402">
        <ele>3.7</ele>
        <time>2015-04-27T07:31:40.000Z</time>
      </trkpt>
      <trkpt lat="46.1129" lon="-1.12402">
        <ele>3.8</ele>
        <time>2015-04-27T07:33:36.000Z</time>
      </trkpt>
      <trkpt lat="46.11282" lon="-1.12404">
        <ele>3.9</ele>
        <time>2015-04-27T07:33:45.000Z</time>
      </trkpt>
      <trkpt lat="46.11269" lon="-1.12407">
        <ele>4</ele>
        <time>2015-04-27T07:33:57.000Z</time>
      </trkpt>
      <trkpt lat="46.11258" lon="-1.12409">
        <ele>4</ele>
        <time>2015-04-27T07:34:06.000Z</time>
      </trkpt>
      <trkpt lat="46.11244" lon="-1.12411">
        <ele>4</ele>
        <time>2015-04-27T07:34:17.000Z</time>
      </trkpt>
      <trkpt lat="46.11228" lon="-1.12413">
        <ele>4</ele>
        <time>2015-04-27T07:34:29.000Z</time>
      </trkpt>
      <trkpt lat="46.11213" lon="-1.12416">
        <ele>4</ele>
        <time>2015-04-27T07:34:41.000Z</time>
      </trkpt>
      <trkpt lat="46.112" lon="-1.12427">
        <ele>3.9</ele>
        <time>2015-04-27T07:34:52.000Z</time>
      </trkpt>
      <trkpt lat="46.11188" lon="-1.12436">
        <ele>4</ele>
        <time>2015-04-27T07:35:02.000Z</time>
      </trkpt>
      <trkpt lat="46.11178" lon="-1.12445">
        <ele>4</ele>
        <time>2015-04-27T07:35:11.000Z</time>
      </trkpt>
      <trkpt lat="46.11168" lon="-1.12453">
        <ele>4</ele>
        <time>2015-04-27T07:35:21.000Z</time>
      </trkpt>
      <trkpt lat="46.11158" lon="-1.12464">
        <ele>3.9</ele>
        <time>2015-04-27T07:35:30.000Z</time>
      </trkpt>
      <trkpt lat="46.11145" lon="-1.12474">
        <ele>4</ele>
        <time>2015-04-27T07:35:41.000Z</time>
      </trkpt>
      <trkpt lat="46.11134" lon="-1.12483">
        <ele>3.9</ele>
        <time>2015-04-27T07:35:50.000Z</time>
      </trkpt>
      <trkpt lat="46.11121" lon="-1.12494">
        <ele>3.9</ele>
        <time>2015-04-27T07:36:01.000Z</time>
      </trkpt>
      <trkpt lat="46.11107" lon="-1.12509">
        <ele>3.6</ele>
        <time>2015-04-27T07:36:13.000Z</time>
      </trkpt>
      <trkpt lat="46.11093" lon="-1.12526">
        <ele>3.6</ele>
        <time>2015-04-27T07:36:26.000Z</time>
      </trkpt>
      <trkpt lat="46.11085" lon="-1.12539">
        <ele>3.9</ele>
        <time>2015-04-27T07:36:35.000Z</time>
      </trkpt>
      <trkpt lat="46.11078" lon="-1.12554">
        <ele>3.8</ele>
        <time>2015-04-27T07:36:44.000Z</time>
      </trkpt>
      <trkpt lat="46.11074" lon="-1.12577">
        <ele>3.4</ele>
        <time>2015-04-27T07:36:56.000Z</time>
      </trkpt>
      <trkpt lat="46.11075" lon="-1.126">
        <ele>3.1</ele>
        <time>2015-04-27T07:37:07.000Z</time>
      </trkpt>
      <trkpt lat="46.11076" lon="-1.12622">
        <ele>2.9</ele>
        <time>2015-04-27T07:37:18.000Z</time>
      </trkpt>
      <trkpt lat="46.11077" lon="-1.12637">
        <ele>2.8</ele>
        <time>2015-04-27T07:37:26.000Z</time>
      </trkpt>
      <trkpt lat="46.11071" lon="-1.12672">
        <ele>2.4</ele>
        <time>2015-04-27T07:37:43.000Z</time>
      </trkpt>
      <trkpt lat="46.11067" lon="-1.12693">
        <ele>2.8</ele>
        <time>2015-04-27T07:37:54.000Z</time>
      </trkpt>
      <trkpt lat="46.11064" lon="-1.12713">
        <ele>2.7</ele>
        <time>2015-04-27T07:38:04.000Z</time>
      </trkpt>
      <trkpt lat="46.1106" lon="-1.12732">
        <ele>2.7</ele>
        <time>2015-04-27T07:38:14.000Z</time>
      </trkpt>
      <trkpt lat="46.11056" lon="-1.12749">
        <ele>3</ele>
        <time>2015-04-27T07:38:24.000Z</time>
      </trkpt>
      <trkpt lat="46.11053" lon="-1.12766">
        <ele>3</ele>
        <time>2015-04-27T07:38:33.000Z</time>
      </trkpt>
      <trkpt lat="46.11048" lon="-1.12785">
        <ele>2.8</ele>
        <time>2015-04-27T07:38:43.000Z</time>
      </trkpt>
      <trkpt lat="46.11041" lon="-1.12804">
        <ele>2.5</ele>
        <time>2015-04-27T07:38:54.000Z</time>
      </trkpt>
      <trkpt lat="46.11033" lon="-1.12823">
        <ele>2.8</ele>
        <time>2015-04-27T07:39:05.000Z</time>
      </trkpt>
      <trkpt lat="46.11025" lon="-1.12844">
        <ele>3.1</ele>
        <time>2015-04-27T07:39:17.000Z</time>
      </trkpt>
      <trkpt lat="46.11017" lon="-1.1286">
        <ele>3</ele>
        <time>2015-04-27T07:39:27.000Z</time>
      </trkpt>
      <trkpt lat="46.11008" lon="-1.12882">
        <ele>2.8</ele>
        <time>2015-04-27T07:39:40.000Z</time>
      </trkpt>
      <trkpt lat="46.11003" lon="-1.12895">
        <ele>2.9</ele>
        <time>2015-04-27T07:39:47.000Z</time>
      </trkpt>
      <trkpt lat="46.10995" lon="-1.12916">
        <ele>3</ele>
        <time>2015-04-27T07:39:59.000Z</time>
      </trkpt>
      <trkpt lat="46.10986" lon="-1.12937">
        <ele>2.6</ele>
        <time>2015-04-27T07:40:11.000Z</time>
      </trkpt>
      <trkpt lat="46.10978" lon="-1.12956">
        <ele>2.7</ele>
        <time>2015-04-27T07:40:22.000Z</time>
      </trkpt>
      <trkpt lat="46.10969" lon="-1.12975">
        <ele>3</ele>
        <time>2015-04-27T07:40:33.000Z</time>
      </trkpt>
      <trkpt lat="46.10958" lon="-1.12996">
        <ele>2.7</ele>
        <time>2015-04-27T07:40:46.000Z</time>
      </trkpt>
      <trkpt lat="46.10945" lon="-1.13014">
        <ele>3</ele>
        <time>2015-04-27T07:40:58.000Z</time>
      </trkpt>
      <trkpt lat="46.10933" lon="-1.13027">
        <ele>3</ele>
        <time>2015-04-27T07:41:09.000Z</time>
      </trkpt>
      <trkpt lat="46.10919" lon="-1.13045">
        <ele>2.9</ele>
        <time>2015-04-27T07:41:22.000Z</time>
      </trkpt>
      <trkpt lat="46.1091" lon="-1.13062">
        <ele>2.8</ele>
        <time>2015-04-27T07:41:32.000Z</time>
      </trkpt>
      <trkpt lat="46.10902" lon="-1.13084">
        <ele>2.5</ele>
        <time>2015-04-27T07:41:44.000Z</time>
      </trkpt>
      <trkpt lat="46.10895" lon="-1.13106">
        <ele>2.5</ele>
        <time>2015-04-27T07:41:56.000Z</time>
      </trkpt>
      <trkpt lat="46.10889" lon="-1.13127">
        <ele>2.4</ele>
        <time>2015-04-27T07:42:07.000Z</time>
      </trkpt>
      <trkpt lat="46.10886" lon="-1.13148">
        <ele>2.4</ele>
        <time>2015-04-27T07:42:18.000Z</time>
      </trkpt>
      <trkpt lat="46.10886" lon="-1.13175">
        <ele>3</ele>
        <time>2015-04-27T07:42:31.000Z</time>
      </trkpt>
      <trkpt lat="46.10885" lon="-1.13198">
        <ele>2.7</ele>
        <time>2015-04-27T07:42:42.000Z</time>
      </trkpt>
      <trkpt lat="46.10888" lon="-1.13212">
        <ele>1.7</ele>
        <time>2015-04-27T07:42:51.000Z</time>
      </trkpt>
      <trkpt lat="46.1089" lon="-1.13229">
        <ele>1.5</ele>
        <time>2015-04-27T07:43:00.000Z</time>
      </trkpt>
      <trkpt lat="46.10894" lon="-1.13244">
        <ele>2.3</ele>
        <time>2015-04-27T07:43:09.000Z</time>
      </trkpt>
      <trkpt lat="46.10901" lon="-1.13255">
        <ele>2.3</ele>
        <time>2015-04-27T07:43:16.000Z</time>
      </trkpt>
      <trkpt lat="46.10913" lon="-1.13275">
        <ele>2.8</ele>
        <time>2015-04-27T07:43:29.000Z</time>
      </trkpt>
      <trkpt lat="46.10925" lon="-1.13297">
        <ele>1.9</ele>
        <time>2015-04-27T07:43:42.000Z</time>
      </trkpt>
      <trkpt lat="46.10932" lon="-1.13315">
        <ele>1.8</ele>
        <time>2015-04-27T07:43:52.000Z</time>
      </trkpt>
      <trkpt lat="46.10938" lon="-1.13339">
        <ele>2.8</ele>
        <time>2015-04-27T07:44:04.000Z</time>
      </trkpt>
      <trkpt lat="46.10942" lon="-1.1336">
        <ele>2.9</ele>
        <time>2015-04-27T07:44:15.000Z</time>
      </trkpt>
      <trkpt lat="46.10947" lon="-1.13382">
        <ele>3</ele>
        <time>2015-04-27T07:44:26.000Z</time>
      </trkpt>
      <trkpt lat="46.1095" lon="-1.13403">
        <ele>2.8</ele>
        <time>2015-04-27T07:44:36.000Z</time>
      </trkpt>
      <trkpt lat="46.10954" lon="-1.13425">
        <ele>2.3</ele>
        <time>2015-04-27T07:44:47.000Z</time>
      </trkpt>
      <trkpt lat="46.10955" lon="-1.13443">
        <ele>2.3</ele>
        <time>2015-04-27T07:44:56.000Z</time>
      </trkpt>
      <trkpt lat="46.10957" lon="-1.13466">
        <ele>2.5</ele>
        <time>2015-04-27T07:45:07.000Z</time>
      </trkpt>
      <trkpt lat="46.10957" lon="-1.1349">
        <ele>2.6</ele>
        <time>2015-04-27T07:45:19.000Z</time>
      </trkpt>
      <trkpt lat="46.10957" lon="-1.13516">
        <ele>2.3</ele>
        <time>2015-04-27T07:45:32.000Z</time>
      </trkpt>
      <trkpt lat="46.10958" lon="-1.13542">
        <ele>2.3</ele>
        <time>2015-04-27T07:45:45.000Z</time>
      </trkpt>
      <trkpt lat="46.10957" lon="-1.13569">
        <ele>2.7</ele>
        <time>2015-04-27T07:45:58.000Z</time>
      </trkpt>
      <trkpt lat="46.10955" lon="-1.13596">
        <ele>2.9</ele>
        <time>2015-04-27T07:46:11.000Z</time>
      </trkpt>
      <trkpt lat="46.10954" lon="-1.13618">
        <ele>3</ele>
        <time>2015-04-27T07:46:22.000Z</time>
      </trkpt>
      <trkpt lat="46.10954" lon="-1.13645">
        <ele>3</ele>
        <time>2015-04-27T07:46:34.000Z</time>
      </trkpt>
      <trkpt lat="46.10955" lon="-1.13669">
        <ele>2.9</ele>
        <time>2015-04-27T07:46:46.000Z</time>
      </trkpt>
      <trkpt lat="46.10959" lon="-1.13691">
        <ele>2.9</ele>
        <time>2015-04-27T07:46:57.000Z</time>
      </trkpt>
      <trkpt lat="46.10963" lon="-1.13716">
        <ele>3.2</ele>
        <time>2015-04-27T07:47:09.000Z</time>
      </trkpt>
      <trkpt lat="46.10968" lon="-1.13739">
        <ele>3.7</ele>
        <time>2015-04-27T07:47:21.000Z</time>
      </trkpt>
      <trkpt lat="46.10972" lon="-1.13759">
        <ele>4</ele>
        <time>2015-04-27T07:47:31.000Z</time>
      </trkpt>
      <trkpt lat="46.10974" lon="-1.13768">
        <ele>3.8</ele>
        <time>2015-04-27T07:47:36.000Z</time>
      </trkpt>
      <trkpt lat="46.10971" lon="-1.13776">
        <ele>4</ele>
        <time>2015-04-27T07:47:42.000Z</time>
      </trkpt>
      <trkpt lat="46.1097" lon="-1.13778">
        <ele>3.9</ele>
        <time>2015-04-27T07:47:44.000Z</time>
      </trkpt>
      <trkpt lat="46.10968" lon="-1.13785">
        <ele>3.8</ele>
        <time>2015-04-27T07:47:52.000Z</time>
      </trkpt>
      <trkpt lat="46.10967" lon="-1.13791">
        <ele>3.8</ele>
        <time>2015-04-27T07:48:19.000Z</time>
      </trkpt>
      <trkpt lat="46.10967" lon="-1.13794">
        <ele>3.8</ele>
        <time>2015-04-27T07:48:25.000Z</time>
      </trkpt>
      <trkpt lat="46.10967" lon="-1.13795">
        <ele>3.8</ele>
        <time>2015-04-27T07:48:50.000Z</time>
      </trkpt>
      <trkpt lat="46.10966" lon="-1.13794">
        <ele>3.8</ele>
        <time>2015-04-27T07:48:57.000Z</time>
      </trkpt>
      <trkpt lat="46.10966" lon="-1.13793">
        <ele>3.8</ele>
        <time>2015-04-27T07:49:22.000Z</time>
      </trkpt>
      <trkpt lat="46.10966" lon="-1.13799">
        <ele>3.8</ele>
        <time>2015-04-27T07:50:24.000Z</time>
      </trkpt>
      <trkpt lat="46.10965" lon="-1.13801">
        <ele>3.8</ele>
        <time>2015-04-27T07:50:31.000Z</time>
      </trkpt>
      <trkpt lat="46.10965" lon="-1.13798">
        <ele>3.7</ele>
        <time>2015-04-27T07:50:41.000Z</time>
      </trkpt>
      <trkpt lat="46.10967" lon="-1.13792">
        <ele>3.8</ele>
        <time>2015-04-27T07:50:48.000Z</time>
      </trkpt>
      <trkpt lat="46.10966" lon="-1.13796">
        <ele>3.8</ele>
        <time>2015-04-27T07:52:13.000Z</time>
      </trkpt>
      <trkpt lat="46.10967" lon="-1.13795">
        <ele>3.8</ele>
        <time>2015-04-27T07:52:19.000Z</time>
      </trkpt>
      <trkpt lat="46.10967" lon="-1.138">
        <ele>3.8</ele>
        <time>2015-04-27T07:52:24.000Z</time>
      </trkpt>
      <trkpt lat="46.10968" lon="-1.13798">
        <ele>3.8</ele>
        <time>2015-04-27T07:52:30.000Z</time>
      </trkpt>
      <trkpt lat="46.10967" lon="-1.13796">
        <ele>3.8</ele>
        <time>2015-04-27T07:52:36.000Z</time>
      </trkpt>
      <trkpt lat="46.10964" lon="-1.13796">
        <ele>3.7</ele>
        <time>2015-04-27T07:52:42.000Z</time>
      </trkpt>
      <trkpt lat="46.10962" lon="-1.13797">
        <ele>3.6</ele>
        <time>2015-04-27T07:52:51.000Z</time>
      </trkpt>
      <trkpt lat="46.10958" lon="-1.13798">
        <ele>3.5</ele>
        <time>2015-04-27T07:52:59.000Z</time>
      </trkpt>
      <trkpt lat="46.10957" lon="-1.13798">
        <ele>3.5</ele>
        <time>2015-04-27T07:53:04.000Z</time>
      </trkpt>
      <trkpt lat="46.10954" lon="-1.138">
        <ele>3.4</ele>
        <time>2015-04-27T07:53:10.000Z</time>
      </trkpt>
      <trkpt lat="46.10951" lon="-1.13802">
        <ele>3.2</ele>
        <time>2015-04-27T07:53:16.000Z</time>
      </trkpt>
      <trkpt lat="46.10944" lon="-1.13805">
        <ele>3</ele>
        <time>2015-04-27T07:53:25.000Z</time>
      </trkpt>
      <trkpt lat="46.10936" lon="-1.13807">
        <ele>3.1</ele>
        <time>2015-04-27T07:53:35.000Z</time>
      </trkpt>
      <trkpt lat="46.10928" lon="-1.13809">
        <ele>3.1</ele>
        <time>2015-04-27T07:53:44.000Z</time>
      </trkpt>
      <trkpt lat="46.10918" lon="-1.13811">
        <ele>3.2</ele>
        <time>2015-04-27T07:53:52.000Z</time>
      </trkpt>
      <trkpt lat="46.10907" lon="-1.13811">
        <ele>3.1</ele>
        <time>2015-04-27T07:54:01.000Z</time>
      </trkpt>
      <trkpt lat="46.109" lon="-1.13804">
        <ele>3</ele>
        <time>2015-04-27T07:54:10.000Z</time>
      </trkpt>
      <trkpt lat="46.10899" lon="-1.13801">
        <ele>3.2</ele>
        <time>2015-04-27T07:54:12.000Z</time>
      </trkpt>
      <trkpt lat="46.10893" lon="-1.13798">
        <ele>3.3</ele>
        <time>2015-04-27T07:54:17.000Z</time>
      </trkpt>
      <trkpt lat="46.1088" lon="-1.13798">
        <ele>3.3</ele>
        <time>2015-04-27T07:54:28.000Z</time>
      </trkpt>
      <trkpt lat="46.10868" lon="-1.138">
        <ele>3.2</ele>
        <time>2015-04-27T07:54:38.000Z</time>
      </trkpt>
      <trkpt lat="46.10857" lon="-1.13801">
        <ele>3.2</ele>
        <time>2015-04-27T07:54:47.000Z</time>
      </trkpt>
      <trkpt lat="46.10848" lon="-1.13803">
        <ele>3.1</ele>
        <time>2015-04-27T07:54:54.000Z</time>
      </trkpt>
      <trkpt lat="46.10836" lon="-1.13806">
        <ele>3</ele>
        <time>2015-04-27T07:55:03.000Z</time>
      </trkpt>
      <trkpt lat="46.10821" lon="-1.13811">
        <ele>3</ele>
        <time>2015-04-27T07:55:14.000Z</time>
      </trkpt>
      <trkpt lat="46.10808" lon="-1.1382">
        <ele>3</ele>
        <time>2015-04-27T07:55:25.000Z</time>
      </trkpt>
      <trkpt lat="46.10795" lon="-1.13829">
        <ele>3.4</ele>
        <time>2015-04-27T07:55:35.000Z</time>
      </trkpt>
      <trkpt lat="46.10782" lon="-1.13836">
        <ele>3.8</ele>
        <time>2015-04-27T07:55:45.000Z</time>
      </trkpt>
      <trkpt lat="46.1077" lon="-1.13841">
        <ele>3.7</ele>
        <time>2015-04-27T07:55:54.000Z</time>
      </trkpt>
      <trkpt lat="46.10754" lon="-1.13847">
        <ele>3.5</ele>
        <time>2015-04-27T07:56:05.000Z</time>
      </trkpt>
      <trkpt lat="46.1074" lon="-1.13848">
        <ele>3.1</ele>
        <time>2015-04-27T07:56:15.000Z</time>
      </trkpt>
      <trkpt lat="46.10726" lon="-1.13849">
        <ele>2.7</ele>
        <time>2015-04-27T07:56:25.000Z</time>
      </trkpt>
      <trkpt lat="46.10713" lon="-1.1385">
        <ele>2.6</ele>
        <time>2015-04-27T07:56:35.000Z</time>
      </trkpt>
      <trkpt lat="46.10701" lon="-1.13848">
        <ele>2.5</ele>
        <time>2015-04-27T07:56:44.000Z</time>
      </trkpt>
      <trkpt lat="46.10689" lon="-1.13851">
        <ele>2.6</ele>
        <time>2015-04-27T07:56:53.000Z</time>
      </trkpt>
      <trkpt lat="46.10677" lon="-1.13851">
        <ele>2.7</ele>
        <time>2015-04-27T07:57:02.000Z</time>
      </trkpt>
      <trkpt lat="46.10673" lon="-1.13852">
        <ele>2.7</ele>
        <time>2015-04-27T07:57:05.000Z</time>
      </trkpt>
      <trkpt lat="46.10661" lon="-1.13851">
        <ele>2.7</ele>
        <time>2015-04-27T07:57:15.000Z</time>
      </trkpt>
      <trkpt lat="46.10646" lon="-1.13846">
        <ele>2.9</ele>
        <time>2015-04-27T07:57:28.000Z</time>
      </trkpt>
      <trkpt lat="46.10637" lon="-1.13841">
        <ele>2.9</ele>
        <time>2015-04-27T07:57:36.000Z</time>
      </trkpt>
      <trkpt lat="46.1063" lon="-1.13834">
        <ele>2.3</ele>
        <time>2015-04-27T07:57:44.000Z</time>
      </trkpt>
      <trkpt lat="46.10628" lon="-1.13825">
        <ele>2.4</ele>
        <time>2015-04-27T07:57:50.000Z</time>
      </trkpt>
      <trkpt lat="46.10628" lon="-1.13804">
        <ele>2.8</ele>
        <time>2015-04-27T07:58:01.000Z</time>
      </trkpt>
      <trkpt lat="46.10628" lon="-1.13783">
        <ele>2.4</ele>
        <time>2015-04-27T07:58:12.000Z</time>
      </trkpt>
      <trkpt lat="46.10629" lon="-1.13759">
        <ele>2.7</ele>
        <time>2015-04-27T07:58:24.000Z</time>
      </trkpt>
      <trkpt lat="46.10628" lon="-1.13732">
        <ele>2.8</ele>
        <time>2015-04-27T07:58:37.000Z</time>
      </trkpt>
      <trkpt lat="46.10626" lon="-1.13705">
        <ele>2.9</ele>
        <time>2015-04-27T07:58:50.000Z</time>
      </trkpt>
      <trkpt lat="46.10624" lon="-1.13678">
        <ele>3.2</ele>
        <time>2015-04-27T07:59:03.000Z</time>
      </trkpt>
      <trkpt lat="46.10622" lon="-1.1366">
        <ele>3.5</ele>
        <time>2015-04-27T07:59:12.000Z</time>
      </trkpt>
      <trkpt lat="46.10616" lon="-1.13635">
        <ele>4.1</ele>
        <time>2015-04-27T07:59:25.000Z</time>
      </trkpt>
      <trkpt lat="46.10611" lon="-1.1361">
        <ele>5</ele>
        <time>2015-04-27T07:59:37.000Z</time>
      </trkpt>
      <trkpt lat="46.10605" lon="-1.13585">
        <ele>4.2</ele>
        <time>2015-04-27T07:59:50.000Z</time>
      </trkpt>
      <trkpt lat="46.10597" lon="-1.13563">
        <ele>3.4</ele>
        <time>2015-04-27T08:00:02.000Z</time>
      </trkpt>
      <trkpt lat="46.10588" lon="-1.13543">
        <ele>3.5</ele>
        <time>2015-04-27T08:00:13.000Z</time>
      </trkpt>
      <trkpt lat="46.1058" lon="-1.13524">
        <ele>3.7</ele>
        <time>2015-04-27T08:00:24.000Z</time>
      </trkpt>
      <trkpt lat="46.10572" lon="-1.13506">
        <ele>3.4</ele>
        <time>2015-04-27T08:00:35.000Z</time>
      </trkpt>
      <trkpt lat="46.10561" lon="-1.13486">
        <ele>3.6</ele>
        <time>2015-04-27T08:00:48.000Z</time>
      </trkpt>
      <trkpt lat="46.10557" lon="-1.13476">
        <ele>3.9</ele>
        <time>2015-04-27T08:00:58.000Z</time>
      </trkpt>
      <trkpt lat="46.10555" lon="-1.13473">
        <ele>3.9</ele>
        <time>2015-04-27T08:01:04.000Z</time>
      </trkpt>
      <trkpt lat="46.10552" lon="-1.13468">
        <ele>3.5</ele>
        <time>2015-04-27T08:01:10.000Z</time>
      </trkpt>
      <trkpt lat="46.10549" lon="-1.13461">
        <ele>3.2</ele>
        <time>2015-04-27T08:01:17.000Z</time>
      </trkpt>
      <trkpt lat="46.10546" lon="-1.13457">
        <ele>3</ele>
        <time>2015-04-27T08:01:23.000Z</time>
      </trkpt>
      <trkpt lat="46.10544" lon="-1.13454">
        <ele>2.9</ele>
        <time>2015-04-27T08:01:32.000Z</time>
      </trkpt>
      <trkpt lat="46.10543" lon="-1.13452">
        <ele>2.9</ele>
        <time>2015-04-27T08:01:39.000Z</time>
      </trkpt>
      <trkpt lat="46.1054" lon="-1.13452">
        <ele>2.8</ele>
        <time>2015-04-27T08:03:47.000Z</time>
      </trkpt>
      <trkpt lat="46.10539" lon="-1.13447">
        <ele>2.9</ele>
        <time>2015-04-27T08:05:43.000Z</time>
      </trkpt>
      <trkpt lat="46.10537" lon="-1.13444">
        <ele>3</ele>
        <time>2015-04-27T08:06:08.000Z</time>
      </trkpt>
      <trkpt lat="46.10533" lon="-1.13434">
        <ele>3.5</ele>
        <time>2015-04-27T08:06:17.000Z</time>
      </trkpt>
      <trkpt lat="46.10527" lon="-1.13422">
        <ele>4.6</ele>
        <time>2015-04-27T08:06:27.000Z</time>
      </trkpt>
      <trkpt lat="46.10522" lon="-1.13412">
        <ele>4.4</ele>
        <time>2015-04-27T08:06:35.000Z</time>
      </trkpt>
      <trkpt lat="46.10516" lon="-1.13402">
        <ele>3.9</ele>
        <time>2015-04-27T08:06:44.000Z</time>
      </trkpt>
      <trkpt lat="46.10509" lon="-1.13392">
        <ele>3.9</ele>
        <time>2015-04-27T08:06:52.000Z</time>
      </trkpt>
      <trkpt lat="46.10507" lon="-1.13387">
        <ele>4</ele>
        <time>2015-04-27T08:06:57.000Z</time>
      </trkpt>
      <trkpt lat="46.10507" lon="-1.13381">
        <ele>3.9</ele>
        <time>2015-04-27T08:07:02.000Z</time>
      </trkpt>
      <trkpt lat="46.10509" lon="-1.13376">
        <ele>3.9</ele>
        <time>2015-04-27T08:07:09.000Z</time>
      </trkpt>
      <trkpt lat="46.10518" lon="-1.13373">
        <ele>3.6</ele>
        <time>2015-04-27T08:07:17.000Z</time>
      </trkpt>
      <trkpt lat="46.10528" lon="-1.13367">
        <ele>3.2</ele>
        <time>2015-04-27T08:07:26.000Z</time>
      </trkpt>
      <trkpt lat="46.10541" lon="-1.1336">
        <ele>3.5</ele>
        <time>2015-04-27T08:07:36.000Z</time>
      </trkpt>
      <trkpt lat="46.10554" lon="-1.13347">
        <ele>3.5</ele>
        <time>2015-04-27T08:07:47.000Z</time>
      </trkpt>
      <trkpt lat="46.10563" lon="-1.13332">
        <ele>3</ele>
        <time>2015-04-27T08:07:57.000Z</time>
      </trkpt>
      <trkpt lat="46.10568" lon="-1.13319">
        <ele>3.1</ele>
        <time>2015-04-27T08:08:05.000Z</time>
      </trkpt>
      <trkpt lat="46.1057" lon="-1.13301">
        <ele>3</ele>
        <time>2015-04-27T08:08:15.000Z</time>
      </trkpt>
      <trkpt lat="46.10571" lon="-1.13284">
        <ele>2.9</ele>
        <time>2015-04-27T08:08:25.000Z</time>
      </trkpt>
      <trkpt lat="46.10571" lon="-1.13267">
        <ele>2.9</ele>
        <time>2015-04-27T08:08:35.000Z</time>
      </trkpt>
      <trkpt lat="46.10572" lon="-1.13246">
        <ele>2.9</ele>
        <time>2015-04-27T08:08:46.000Z</time>
      </trkpt>
      <trkpt lat="46.10576" lon="-1.13227">
        <ele>3.1</ele>
        <time>2015-04-27T08:08:56.000Z</time>
      </trkpt>
      <trkpt lat="46.1058" lon="-1.13212">
        <ele>2.8</ele>
        <time>2015-04-27T08:09:04.000Z</time>
      </trkpt>
      <trkpt lat="46.1058" lon="-1.13193">
        <ele>2.3</ele>
        <time>2015-04-27T08:09:13.000Z</time>
      </trkpt>
      <trkpt lat="46.10576" lon="-1.13169">
        <ele>3</ele>
        <time>2015-04-27T08:09:25.000Z</time>
      </trkpt>
      <trkpt lat="46.1057" lon="-1.13149">
        <ele>3.3</ele>
        <time>2015-04-27T08:09:36.000Z</time>
      </trkpt>
      <trkpt lat="46.10562" lon="-1.13129">
        <ele>3.4</ele>
        <time>2015-04-27T08:09:47.000Z</time>
      </trkpt>
      <trkpt lat="46.10554" lon="-1.13107">
        <ele>2.9</ele>
        <time>2015-04-27T08:09:59.000Z</time>
      </trkpt>
      <trkpt lat="46.10547" lon="-1.13083">
        <ele>2.7</ele>
        <time>2015-04-27T08:10:12.000Z</time>
      </trkpt>
      <trkpt lat="46.1054" lon="-1.13057">
        <ele>3.5</ele>
        <time>2015-04-27T08:10:25.000Z</time>
      </trkpt>
      <trkpt lat="46.10538" lon="-1.13041">
        <ele>3.6</ele>
        <time>2015-04-27T08:10:33.000Z</time>
      </trkpt>
      <trkpt lat="46.10535" lon="-1.13019">
        <ele>3.7</ele>
        <time>2015-04-27T08:10:44.000Z</time>
      </trkpt>
      <trkpt lat="46.10533" lon="-1.12997">
        <ele>3.6</ele>
        <time>2015-04-27T08:10:55.000Z</time>
      </trkpt>
      <trkpt lat="46.10531" lon="-1.12983">
        <ele>3.3</ele>
        <time>2015-04-27T08:11:02.000Z</time>
      </trkpt>
      <trkpt lat="46.10528" lon="-1.12958">
        <ele>3</ele>
        <time>2015-04-27T08:11:14.000Z</time>
      </trkpt>
      <trkpt lat="46.10525" lon="-1.12938">
        <ele>3.1</ele>
        <time>2015-04-27T08:11:24.000Z</time>
      </trkpt>
      <trkpt lat="46.1052" lon="-1.12914">
        <ele>2.9</ele>
        <time>2015-04-27T08:11:36.000Z</time>
      </trkpt>
      <trkpt lat="46.10512" lon="-1.12896">
        <ele>2.7</ele>
        <time>2015-04-27T08:11:46.000Z</time>
      </trkpt>
      <trkpt lat="46.105" lon="-1.12877">
        <ele>2.6</ele>
        <time>2015-04-27T08:11:58.000Z</time>
      </trkpt>
      <trkpt lat="46.10492" lon="-1.12862">
        <ele>2.3</ele>
        <time>2015-04-27T08:12:07.000Z</time>
      </trkpt>
      <trkpt lat="46.10487" lon="-1.12848">
        <ele>2.5</ele>
        <time>2015-04-27T08:12:14.000Z</time>
      </trkpt>
      <trkpt lat="46.10481" lon="-1.12838">
        <ele>2.7</ele>
        <time>2015-04-27T08:12:20.000Z</time>
      </trkpt>
      <trkpt lat="46.10465" lon="-1.12811">
        <ele>3</ele>
        <time>2015-04-27T08:12:37.000Z</time>
      </trkpt>
      <trkpt lat="46.10453" lon="-1.12792">
        <ele>3</ele>
        <time>2015-04-27T08:12:50.000Z</time>
      </trkpt>
      <trkpt lat="46.10441" lon="-1.12774">
        <ele>2.9</ele>
        <time>2015-04-27T08:13:02.000Z</time>
      </trkpt>
      <trkpt lat="46.10429" lon="-1.12758">
        <ele>2.7</ele>
        <time>2015-04-27T08:13:14.000Z</time>
      </trkpt>
      <trkpt lat="46.10415" lon="-1.1275">
        <ele>3</ele>
        <time>2015-04-27T08:13:24.000Z</time>
      </trkpt>
      <trkpt lat="46.10407" lon="-1.12744">
        <ele>3</ele>
        <time>2015-04-27T08:13:31.000Z</time>
      </trkpt>
      <trkpt lat="46.10399" lon="-1.12724">
        <ele>3</ele>
        <time>2015-04-27T08:13:42.000Z</time>
      </trkpt>
      <trkpt lat="46.10394" lon="-1.12712">
        <ele>3</ele>
        <time>2015-04-27T08:13:49.000Z</time>
      </trkpt>
      <trkpt lat="46.1039" lon="-1.12698">
        <ele>3</ele>
        <time>2015-04-27T08:13:58.000Z</time>
      </trkpt>
      <trkpt lat="46.10388" lon="-1.12683">
        <ele>3</ele>
        <time>2015-04-27T08:14:06.000Z</time>
      </trkpt>
      <trkpt lat="46.10384" lon="-1.12663">
        <ele>2.9</ele>
        <time>2015-04-27T08:14:17.000Z</time>
      </trkpt>
      <trkpt lat="46.10381" lon="-1.12647">
        <ele>2.5</ele>
        <time>2015-04-27T08:14:25.000Z</time>
      </trkpt>
      <trkpt lat="46.1038" lon="-1.12631">
        <ele>2.3</ele>
        <time>2015-04-27T08:14:33.000Z</time>
      </trkpt>
      <trkpt lat="46.10379" lon="-1.12619">
        <ele>2.4</ele>
        <time>2015-04-27T08:14:39.000Z</time>
      </trkpt>
      <trkpt lat="46.10379" lon="-1.12601">
        <ele>2.4</ele>
        <time>2015-04-27T08:14:48.000Z</time>
      </trkpt>
      <trkpt lat="46.1038" lon="-1.1259">
        <ele>2.3</ele>
        <time>2015-04-27T08:14:55.000Z</time>
      </trkpt>
      <trkpt lat="46.10382" lon="-1.1258">
        <ele>2.3</ele>
        <time>2015-04-27T08:15:00.000Z</time>
      </trkpt>
      <trkpt lat="46.10386" lon="-1.12564">
        <ele>2.7</ele>
        <time>2015-04-27T08:15:08.000Z</time>
      </trkpt>
      <trkpt lat="46.10389" lon="-1.12548">
        <ele>3</ele>
        <time>2015-04-27T08:15:16.000Z</time>
      </trkpt>
      <trkpt lat="46.10403" lon="-1.12512">
        <ele>3</ele>
        <time>2015-04-27T08:15:36.000Z</time>
      </trkpt>
      <trkpt lat="46.10413" lon="-1.12504">
        <ele>3</ele>
        <time>2015-04-27T08:15:44.000Z</time>
      </trkpt>
      <trkpt lat="46.10425" lon="-1.12494">
        <ele>2.7</ele>
        <time>2015-04-27T08:15:54.000Z</time>
      </trkpt>
      <trkpt lat="46.10434" lon="-1.12484">
        <ele>2.4</ele>
        <time>2015-04-27T08:16:02.000Z</time>
      </trkpt>
      <trkpt lat="46.10439" lon="-1.12465">
        <ele>2.4</ele>
        <time>2015-04-27T08:16:12.000Z</time>
      </trkpt>
      <trkpt lat="46.10442" lon="-1.12447">
        <ele>2.9</ele>
        <time>2015-04-27T08:16:21.000Z</time>
      </trkpt>
      <trkpt lat="46.10448" lon="-1.12423">
        <ele>2.3</ele>
        <time>2015-04-27T08:16:33.000Z</time>
      </trkpt>
      <trkpt lat="46.10452" lon="-1.12405">
        <ele>2.6</ele>
        <time>2015-04-27T08:16:42.000Z</time>
      </trkpt>
      <trkpt lat="46.10452" lon="-1.12384">
        <ele>3</ele>
        <time>2015-04-27T08:16:52.000Z</time>
      </trkpt>
      <trkpt lat="46.10449" lon="-1.12374">
        <ele>3</ele>
        <time>2015-04-27T08:16:58.000Z</time>
      </trkpt>
      <trkpt lat="46.10451" lon="-1.12354">
        <ele>3</ele>
        <time>2015-04-27T08:17:07.000Z</time>
      </trkpt>
      <trkpt lat="46.10452" lon="-1.12338">
        <ele>3</ele>
        <time>2015-04-27T08:17:16.000Z</time>
      </trkpt>
      <trkpt lat="46.10453" lon="-1.12323">
        <ele>3</ele>
        <time>2015-04-27T08:17:24.000Z</time>
      </trkpt>
      <trkpt lat="46.10453" lon="-1.12322">
        <ele>3</ele>
        <time>2015-04-27T08:17:25.000Z</time>
      </trkpt>
      <trkpt lat="46.10453" lon="-1.12322">
        <ele>3</ele>
        <time>2015-04-27T08:17:31.000Z</time>
      </trkpt>
      <trkpt lat="46.10454" lon="-1.1232">
        <ele>3</ele>
        <time>2015-04-27T08:17:38.000Z</time>
      </trkpt>
      <trkpt lat="46.10455" lon="-1.12308">
        <ele>3</ele>
        <time>2015-04-27T08:17:45.000Z</time>
      </trkpt>
      <trkpt lat="46.10455" lon="-1.12307">
        <ele>3</ele>
        <time>2015-04-27T08:17:46.000Z</time>
      </trkpt>
      <trkpt lat="46.10456" lon="-1.12302">
        <ele>3</ele>
        <time>2015-04-27T08:17:49.000Z</time>
      </trkpt>
      <trkpt lat="46.10458" lon="-1.1228">
        <ele>3</ele>
        <time>2015-04-27T08:18:01.000Z</time>
      </trkpt>
      <trkpt lat="46.1046" lon="-1.12262">
        <ele>2.7</ele>
        <time>2015-04-27T08:18:11.000Z</time>
      </trkpt>
      <trkpt lat="46.10463" lon="-1.12236">
        <ele>2.8</ele>
        <time>2015-04-27T08:18:24.000Z</time>
      </trkpt>
      <trkpt lat="46.10465" lon="-1.12215">
        <ele>3</ele>
        <time>2015-04-27T08:18:35.000Z</time>
      </trkpt>
      <trkpt lat="46.10466" lon="-1.12199">
        <ele>2.4</ele>
        <time>2015-04-27T08:18:42.000Z</time>
      </trkpt>
      <trkpt lat="46.10467" lon="-1.12187">
        <ele>2.5</ele>
        <time>2015-04-27T08:18:49.000Z</time>
      </trkpt>
      <trkpt lat="46.10468" lon="-1.12167">
        <ele>3.1</ele>
        <time>2015-04-27T08:18:59.000Z</time>
      </trkpt>
      <trkpt lat="46.10467" lon="-1.12149">
        <ele>2.5</ele>
        <time>2015-04-27T08:19:08.000Z</time>
      </trkpt>
      <trkpt lat="46.10467" lon="-1.12126">
        <ele>2.6</ele>
        <time>2015-04-27T08:19:18.000Z</time>
      </trkpt>
      <trkpt lat="46.10467" lon="-1.1208">
        <ele>3</ele>
        <time>2015-04-27T08:19:41.000Z</time>
      </trkpt>
      <trkpt lat="46.10467" lon="-1.12058">
        <ele>3</ele>
        <time>2015-04-27T08:19:52.000Z</time>
      </trkpt>
      <trkpt lat="46.10467" lon="-1.12033">
        <ele>3</ele>
        <time>2015-04-27T08:20:04.000Z</time>
      </trkpt>
      <trkpt lat="46.10468" lon="-1.12011">
        <ele>3</ele>
        <time>2015-04-27T08:20:15.000Z</time>
      </trkpt>
      <trkpt lat="46.1047" lon="-1.11984">
        <ele>3</ele>
        <time>2015-04-27T08:20:28.000Z</time>
      </trkpt>
      <trkpt lat="46.10473" lon="-1.11967">
        <ele>3</ele>
        <time>2015-04-27T08:20:37.000Z</time>
      </trkpt>
      <trkpt lat="46.10475" lon="-1.11942">
        <ele>3.1</ele>
        <time>2015-04-27T08:20:49.000Z</time>
      </trkpt>
      <trkpt lat="46.10478" lon="-1.11923">
        <ele>3.2</ele>
        <time>2015-04-27T08:20:59.000Z</time>
      </trkpt>
      <trkpt lat="46.10484" lon="-1.11903">
        <ele>3.2</ele>
        <time>2015-04-27T08:21:11.000Z</time>
      </trkpt>
      <trkpt lat="46.10498" lon="-1.11891">
        <ele>3.1</ele>
        <time>2015-04-27T08:21:24.000Z</time>
      </trkpt>
      <trkpt lat="46.10505" lon="-1.11891">
        <ele>3.1</ele>
        <time>2015-04-27T08:21:31.000Z</time>
      </trkpt>
      <trkpt lat="46.10509" lon="-1.11889">
        <ele>3</ele>
        <time>2015-04-27T08:21:36.000Z</time>
      </trkpt>
      <trkpt lat="46.10521" lon="-1.11887">
        <ele>3</ele>
        <time>2015-04-27T08:21:44.000Z</time>
      </trkpt>
      <trkpt lat="46.10535" lon="-1.11878">
        <ele>3</ele>
        <time>2015-04-27T08:21:55.000Z</time>
      </trkpt>
      <trkpt lat="46.10538" lon="-1.11874">
        <ele>3</ele>
        <time>2015-04-27T08:21:58.000Z</time>
      </trkpt>
      <trkpt lat="46.10543" lon="-1.11864">
        <ele>3</ele>
        <time>2015-04-27T08:22:04.000Z</time>
      </trkpt>
      <trkpt lat="46.10548" lon="-1.11853">
        <ele>3</ele>
        <time>2015-04-27T08:22:11.000Z</time>
      </trkpt>
      <trkpt lat="46.10552" lon="-1.11843">
        <ele>3</ele>
        <time>2015-04-27T08:22:17.000Z</time>
      </trkpt>
      <trkpt lat="46.10558" lon="-1.11826">
        <ele>3</ele>
        <time>2015-04-27T08:22:26.000Z</time>
      </trkpt>
      <trkpt lat="46.10565" lon="-1.11803">
        <ele>3</ele>
        <time>2015-04-27T08:22:39.000Z</time>
      </trkpt>
      <trkpt lat="46.1057" lon="-1.11781">
        <ele>3</ele>
        <time>2015-04-27T08:22:50.000Z</time>
      </trkpt>
      <trkpt lat="46.10576" lon="-1.11757">
        <ele>3</ele>
        <time>2015-04-27T08:23:02.000Z</time>
      </trkpt>
      <trkpt lat="46.10579" lon="-1.11742">
        <ele>3</ele>
        <time>2015-04-27T08:23:10.000Z</time>
      </trkpt>
      <trkpt lat="46.10582" lon="-1.11728">
        <ele>3</ele>
        <time>2015-04-27T08:23:17.000Z</time>
      </trkpt>
      <trkpt lat="46.1059" lon="-1.11706">
        <ele>3</ele>
        <time>2015-04-27T08:23:29.000Z</time>
      </trkpt>
      <trkpt lat="46.10597" lon="-1.11688">
        <ele>3</ele>
        <time>2015-04-27T08:23:39.000Z</time>
      </trkpt>
      <trkpt lat="46.106" lon="-1.1168">
        <ele>3</ele>
        <time>2015-04-27T08:23:46.000Z</time>
      </trkpt>
      <trkpt lat="46.106" lon="-1.11676">
        <ele>3</ele>
        <time>2015-04-27T08:27:28.000Z</time>
      </trkpt>
      <trkpt lat="46.10598" lon="-1.11677">
        <ele>3</ele>
        <time>2015-04-27T08:29:16.000Z</time>
      </trkpt>
      <trkpt lat="46.10597" lon="-1.11683">
        <ele>3</ele>
        <time>2015-04-27T08:30:13.000Z</time>
      </trkpt>
      <trkpt lat="46.10597" lon="-1.11683">
        <ele>3</ele>
        <time>2015-04-27T08:30:21.000Z</time>
      </trkpt>
      <trkpt lat="46.10595" lon="-1.11691">
        <ele>3</ele>
        <time>2015-04-27T08:30:56.000Z</time>
      </trkpt>
      <trkpt lat="46.10589" lon="-1.11709">
        <ele>3</ele>
        <time>2015-04-27T08:31:08.000Z</time>
      </trkpt>
      <trkpt lat="46.10586" lon="-1.11719">
        <ele>3</ele>
        <time>2015-04-27T08:31:14.000Z</time>
      </trkpt>
      <trkpt lat="46.10576" lon="-1.11756">
        <ele>3</ele>
        <time>2015-04-27T08:31:36.000Z</time>
      </trkpt>
      <trkpt lat="46.10571" lon="-1.11779">
        <ele>3</ele>
        <time>2015-04-27T08:31:49.000Z</time>
      </trkpt>
      <trkpt lat="46.10566" lon="-1.11799">
        <ele>3</ele>
        <time>2015-04-27T08:32:00.000Z</time>
      </trkpt>
      <trkpt lat="46.10561" lon="-1.11818">
        <ele>3</ele>
        <time>2015-04-27T08:32:11.000Z</time>
      </trkpt>
      <trkpt lat="46.10555" lon="-1.1184">
        <ele>3</ele>
        <time>2015-04-27T08:32:23.000Z</time>
      </trkpt>
      <trkpt lat="46.1055" lon="-1.11856">
        <ele>3</ele>
        <time>2015-04-27T08:32:32.000Z</time>
      </trkpt>
      <trkpt lat="46.10542" lon="-1.11874">
        <ele>3</ele>
        <time>2015-04-27T08:32:43.000Z</time>
      </trkpt>
      <trkpt lat="46.10533" lon="-1.11884">
        <ele>3</ele>
        <time>2015-04-27T08:32:51.000Z</time>
      </trkpt>
      <trkpt lat="46.10521" lon="-1.1189">
        <ele>3</ele>
        <time>2015-04-27T08:33:00.000Z</time>
      </trkpt>
      <trkpt lat="46.10509" lon="-1.11895">
        <ele>3.1</ele>
        <time>2015-04-27T08:33:09.000Z</time>
      </trkpt>
      <trkpt lat="46.10501" lon="-1.11892">
        <ele>3.1</ele>
        <time>2015-04-27T08:33:16.000Z</time>
      </trkpt>
      <trkpt lat="46.10499" lon="-1.11881">
        <ele>3</ele>
        <time>2015-04-27T08:33:21.000Z</time>
      </trkpt>
      <trkpt lat="46.10494" lon="-1.11869">
        <ele>3</ele>
        <time>2015-04-27T08:33:29.000Z</time>
      </trkpt>
      <trkpt lat="46.10485" lon="-1.11853">
        <ele>3.2</ele>
        <time>2015-04-27T08:33:40.000Z</time>
      </trkpt>
      <trkpt lat="46.10481" lon="-1.11837">
        <ele>3.6</ele>
        <time>2015-04-27T08:33:49.000Z</time>
      </trkpt>
      <trkpt lat="46.10475" lon="-1.11832">
        <ele>3.9</ele>
        <time>2015-04-27T08:33:54.000Z</time>
      </trkpt>
      <trkpt lat="46.10469" lon="-1.11834">
        <ele>4</ele>
        <time>2015-04-27T08:34:02.000Z</time>
      </trkpt>
      <trkpt lat="46.1046" lon="-1.11833">
        <ele>4</ele>
        <time>2015-04-27T08:34:10.000Z</time>
      </trkpt>
      <trkpt lat="46.10458" lon="-1.11834">
        <ele>4</ele>
        <time>2015-04-27T08:34:12.000Z</time>
      </trkpt>
      <trkpt lat="46.10448" lon="-1.11832">
        <ele>4</ele>
        <time>2015-04-27T08:34:21.000Z</time>
      </trkpt>
      <trkpt lat="46.10436" lon="-1.11832">
        <ele>4.3</ele>
        <time>2015-04-27T08:34:32.000Z</time>
      </trkpt>
      <trkpt lat="46.10426" lon="-1.11831">
        <ele>4.6</ele>
        <time>2015-04-27T08:34:40.000Z</time>
      </trkpt>
      <trkpt lat="46.10416" lon="-1.1183">
        <ele>4.9</ele>
        <time>2015-04-27T08:34:48.000Z</time>
      </trkpt>
      <trkpt lat="46.10407" lon="-1.1183">
        <ele>4.9</ele>
        <time>2015-04-27T08:34:55.000Z</time>
      </trkpt>
      <trkpt lat="46.10394" lon="-1.11829">
        <ele>5</ele>
        <time>2015-04-27T08:35:04.000Z</time>
      </trkpt>
      <trkpt lat="46.10381" lon="-1.11828">
        <ele>5.3</ele>
        <time>2015-04-27T08:35:14.000Z</time>
      </trkpt>
      <trkpt lat="46.10372" lon="-1.11827">
        <ele>5.6</ele>
        <time>2015-04-27T08:35:21.000Z</time>
      </trkpt>
      <trkpt lat="46.10354" lon="-1.11827">
        <ele>6</ele>
        <time>2015-04-27T08:35:35.000Z</time>
      </trkpt>
      <trkpt lat="46.10343" lon="-1.11826">
        <ele>6</ele>
        <time>2015-04-27T08:35:43.000Z</time>
      </trkpt>
      <trkpt lat="46.10332" lon="-1.11826">
        <ele>6</ele>
        <time>2015-04-27T08:35:51.000Z</time>
      </trkpt>
      <trkpt lat="46.10322" lon="-1.11825">
        <ele>5.7</ele>
        <time>2015-04-27T08:36:00.000Z</time>
      </trkpt>
      <trkpt lat="46.10315" lon="-1.11817">
        <ele>5.7</ele>
        <time>2015-04-27T08:36:08.000Z</time>
      </trkpt>
      <trkpt lat="46.10314" lon="-1.11798">
        <ele>6.2</ele>
        <time>2015-04-27T08:36:18.000Z</time>
      </trkpt>
      <trkpt lat="46.10315" lon="-1.11783">
        <ele>6.5</ele>
        <time>2015-04-27T08:36:26.000Z</time>
      </trkpt>
      <trkpt lat="46.10315" lon="-1.1178">
        <ele>6.6</ele>
        <time>2015-04-27T08:36:31.000Z</time>
      </trkpt>
      <trkpt lat="46.10315" lon="-1.11775">
        <ele>6.6</ele>
        <time>2015-04-27T08:36:39.000Z</time>
      </trkpt>
      <trkpt lat="46.10319" lon="-1.11769">
        <ele>6.3</ele>
        <time>2015-04-27T08:36:47.000Z</time>
      </trkpt>
      <trkpt lat="46.10319" lon="-1.11767">
        <ele>6.3</ele>
        <time>2015-04-27T08:36:48.000Z</time>
      </trkpt>
      <trkpt lat="46.10321" lon="-1.11758">
        <ele>6.1</ele>
        <time>2015-04-27T08:36:54.000Z</time>
      </trkpt>
      <trkpt lat="46.10321" lon="-1.11757">
        <ele>6.1</ele>
        <time>2015-04-27T08:36:55.000Z</time>
      </trkpt>
      <trkpt lat="46.10323" lon="-1.1175">
        <ele>6</ele>
        <time>2015-04-27T08:37:00.000Z</time>
      </trkpt>
      <trkpt lat="46.10324" lon="-1.11749">
        <ele>6</ele>
        <time>2015-04-27T08:37:01.000Z</time>
      </trkpt>
      <trkpt lat="46.10331" lon="-1.11729">
        <ele>6.1</ele>
        <time>2015-04-27T08:37:12.000Z</time>
      </trkpt>
      <trkpt lat="46.10337" lon="-1.11712">
        <ele>5.9</ele>
        <time>2015-04-27T08:37:21.000Z</time>
      </trkpt>
      <trkpt lat="46.10341" lon="-1.11695">
        <ele>5.7</ele>
        <time>2015-04-27T08:37:30.000Z</time>
      </trkpt>
      <trkpt lat="46.10345" lon="-1.11685">
        <ele>5.9</ele>
        <time>2015-04-27T08:37:36.000Z</time>
      </trkpt>
      <trkpt lat="46.10351" lon="-1.11665">
        <ele>6.4</ele>
        <time>2015-04-27T08:37:47.000Z</time>
      </trkpt>
      <trkpt lat="46.10356" lon="-1.11646">
        <ele>6.2</ele>
        <time>2015-04-27T08:37:57.000Z</time>
      </trkpt>
      <trkpt lat="46.10359" lon="-1.11627">
        <ele>6.1</ele>
        <time>2015-04-27T08:38:07.000Z</time>
      </trkpt>
      <trkpt lat="46.10363" lon="-1.11606">
        <ele>6.2</ele>
        <time>2015-04-27T08:38:18.000Z</time>
      </trkpt>
      <trkpt lat="46.10368" lon="-1.11571">
        <ele>6.7</ele>
        <time>2015-04-27T08:38:34.000Z</time>
      </trkpt>
      <trkpt lat="46.1037" lon="-1.11556">
        <ele>6.7</ele>
        <time>2015-04-27T08:38:41.000Z</time>
      </trkpt>
      <trkpt lat="46.10373" lon="-1.11532">
        <ele>6.6</ele>
        <time>2015-04-27T08:38:52.000Z</time>
      </trkpt>
      <trkpt lat="46.10376" lon="-1.11512">
        <ele>6.5</ele>
        <time>2015-04-27T08:39:02.000Z</time>
      </trkpt>
      <trkpt lat="46.10378" lon="-1.11494">
        <ele>6.3</ele>
        <time>2015-04-27T08:39:11.000Z</time>
      </trkpt>
      <trkpt lat="46.1038" lon="-1.11471">
        <ele>6</ele>
        <time>2015-04-27T08:39:21.000Z</time>
      </trkpt>
      <trkpt lat="46.10384" lon="-1.11446">
        <ele>6</ele>
        <time>2015-04-27T08:39:32.000Z</time>
      </trkpt>
      <trkpt lat="46.10387" lon="-1.11422">
        <ele>6.7</ele>
        <time>2015-04-27T08:39:44.000Z</time>
      </trkpt>
      <trkpt lat="46.10391" lon="-1.114">
        <ele>6.9</ele>
        <time>2015-04-27T08:39:55.000Z</time>
      </trkpt>
      <trkpt lat="46.10391" lon="-1.11387">
        <ele>6.9</ele>
        <time>2015-04-27T08:40:01.000Z</time>
      </trkpt>
      <trkpt lat="46.10386" lon="-1.11381">
        <ele>7</ele>
        <time>2015-04-27T08:40:06.000Z</time>
      </trkpt>
      <trkpt lat="46.10374" lon="-1.11373">
        <ele>6.7</ele>
        <time>2015-04-27T08:40:15.000Z</time>
      </trkpt>
      <trkpt lat="46.10361" lon="-1.11367">
        <ele>6.2</ele>
        <time>2015-04-27T08:40:24.000Z</time>
      </trkpt>
      <trkpt lat="46.10345" lon="-1.1136">
        <ele>6.6</ele>
        <time>2015-04-27T08:40:36.000Z</time>
      </trkpt>
      <trkpt lat="46.10329" lon="-1.11351">
        <ele>7</ele>
        <time>2015-04-27T08:40:48.000Z</time>
      </trkpt>
      <trkpt lat="46.10318" lon="-1.11344">
        <ele>7</ele>
        <time>2015-04-27T08:40:57.000Z</time>
      </trkpt>
      <trkpt lat="46.10308" lon="-1.11338">
        <ele>7</ele>
        <time>2015-04-27T08:41:06.000Z</time>
      </trkpt>
      <trkpt lat="46.10301" lon="-1.11332">
        <ele>7</ele>
        <time>2015-04-27T08:41:13.000Z</time>
      </trkpt>
      <trkpt lat="46.10287" lon="-1.11323">
        <ele>7</ele>
        <time>2015-04-27T08:41:24.000Z</time>
      </trkpt>
      <trkpt lat="46.1027" lon="-1.1131">
        <ele>7</ele>
        <time>2015-04-27T08:41:38.000Z</time>
      </trkpt>
      <trkpt lat="46.10259" lon="-1.11302">
        <ele>7.1</ele>
        <time>2015-04-27T08:41:47.000Z</time>
      </trkpt>
      <trkpt lat="46.10246" lon="-1.1129">
        <ele>7.4</ele>
        <time>2015-04-27T08:41:58.000Z</time>
      </trkpt>
      <trkpt lat="46.10237" lon="-1.11282">
        <ele>7.4</ele>
        <time>2015-04-27T08:42:06.000Z</time>
      </trkpt>
      <trkpt lat="46.10226" lon="-1.11272">
        <ele>7</ele>
        <time>2015-04-27T08:42:16.000Z</time>
      </trkpt>
      <trkpt lat="46.10217" lon="-1.11263">
        <ele>6.7</ele>
        <time>2015-04-27T08:42:25.000Z</time>
      </trkpt>
      <trkpt lat="46.10209" lon="-1.11257">
        <ele>6.9</ele>
        <time>2015-04-27T08:42:33.000Z</time>
      </trkpt>
      <trkpt lat="46.102" lon="-1.11247">
        <ele>7.6</ele>
        <time>2015-04-27T08:42:42.000Z</time>
      </trkpt>
      <trkpt lat="46.10187" lon="-1.11236">
        <ele>8</ele>
        <time>2015-04-27T08:42:52.000Z</time>
      </trkpt>
      <trkpt lat="46.10176" lon="-1.11225">
        <ele>8</ele>
        <time>2015-04-27T08:43:01.000Z</time>
      </trkpt>
      <trkpt lat="46.10165" lon="-1.11212">
        <ele>8.4</ele>
        <time>2015-04-27T08:43:11.000Z</time>
      </trkpt>
      <trkpt lat="46.10152" lon="-1.11198">
        <ele>8.9</ele>
        <time>2015-04-27T08:43:22.000Z</time>
      </trkpt>
      <trkpt lat="46.10145" lon="-1.11192">
        <ele>9</ele>
        <time>2015-04-27T08:43:29.000Z</time>
      </trkpt>
      <trkpt lat="46.10133" lon="-1.11178">
        <ele>8.8</ele>
        <time>2015-04-27T08:43:40.000Z</time>
      </trkpt>
      <trkpt lat="46.10126" lon="-1.11166">
        <ele>9</ele>
        <time>2015-04-27T08:43:48.000Z</time>
      </trkpt>
      <trkpt lat="46.10115" lon="-1.11152">
        <ele>9.5</ele>
        <time>2015-04-27T08:43:58.000Z</time>
      </trkpt>
      <trkpt lat="46.10107" lon="-1.11142">
        <ele>9.7</ele>
        <time>2015-04-27T08:44:05.000Z</time>
      </trkpt>
      <trkpt lat="46.10099" lon="-1.11131">
        <ele>9.7</ele>
        <time>2015-04-27T08:44:13.000Z</time>
      </trkpt>
      <trkpt lat="46.10087" lon="-1.11114">
        <ele>9.9</ele>
        <time>2015-04-27T08:44:24.000Z</time>
      </trkpt>
      <trkpt lat="46.10078" lon="-1.11101">
        <ele>9.8</ele>
        <time>2015-04-27T08:44:34.000Z</time>
      </trkpt>
      <trkpt lat="46.10069" lon="-1.11085">
        <ele>9.5</ele>
        <time>2015-04-27T08:44:44.000Z</time>
      </trkpt>
      <trkpt lat="46.10057" lon="-1.11065">
        <ele>9.6</ele>
        <time>2015-04-27T08:44:58.000Z</time>
      </trkpt>
      <trkpt lat="46.10048" lon="-1.11049">
        <ele>9.8</ele>
        <time>2015-04-27T08:45:09.000Z</time>
      </trkpt>
      <trkpt lat="46.10039" lon="-1.11034">
        <ele>9.9</ele>
        <time>2015-04-27T08:45:19.000Z</time>
      </trkpt>
      <trkpt lat="46.10028" lon="-1.11015">
        <ele>10.5</ele>
        <time>2015-04-27T08:45:32.000Z</time>
      </trkpt>
      <trkpt lat="46.10019" lon="-1.10998">
        <ele>10.6</ele>
        <time>2015-04-27T08:45:43.000Z</time>
      </trkpt>
      <trkpt lat="46.10009" lon="-1.1098">
        <ele>10.1</ele>
        <time>2015-04-27T08:45:55.000Z</time>
      </trkpt>
      <trkpt lat="46.09999" lon="-1.1096">
        <ele>10.4</ele>
        <time>2015-04-27T08:46:08.000Z</time>
      </trkpt>
      <trkpt lat="46.0999" lon="-1.10945">
        <ele>10.6</ele>
        <time>2015-04-27T08:46:18.000Z</time>
      </trkpt>
      <trkpt lat="46.09979" lon="-1.10925">
        <ele>10.8</ele>
        <time>2015-04-27T08:46:30.000Z</time>
      </trkpt>
      <trkpt lat="46.09968" lon="-1.10903">
        <ele>11.3</ele>
        <time>2015-04-27T08:46:44.000Z</time>
      </trkpt>
      <trkpt lat="46.09957" lon="-1.10882">
        <ele>11.3</ele>
        <time>2015-04-27T08:46:57.000Z</time>
      </trkpt>
      <trkpt lat="46.09945" lon="-1.1087">
        <ele>11</ele>
        <time>2015-04-27T08:47:07.000Z</time>
      </trkpt>
      <trkpt lat="46.0993" lon="-1.10858">
        <ele>11.1</ele>
        <time>2015-04-27T08:47:19.000Z</time>
      </trkpt>
      <trkpt lat="46.09919" lon="-1.10841">
        <ele>11.7</ele>
        <time>2015-04-27T08:47:30.000Z</time>
      </trkpt>
      <trkpt lat="46.09913" lon="-1.10829">
        <ele>12</ele>
        <time>2015-04-27T08:47:38.000Z</time>
      </trkpt>
      <trkpt lat="46.09906" lon="-1.10808">
        <ele>12.4</ele>
        <time>2015-04-27T08:47:50.000Z</time>
      </trkpt>
      <trkpt lat="46.099" lon="-1.10783">
        <ele>12.1</ele>
        <time>2015-04-27T08:48:03.000Z</time>
      </trkpt>
      <trkpt lat="46.09892" lon="-1.10765">
        <ele>12</ele>
        <time>2015-04-27T08:48:14.000Z</time>
      </trkpt>
      <trkpt lat="46.09882" lon="-1.10748">
        <ele>12.1</ele>
        <time>2015-04-27T08:48:26.000Z</time>
      </trkpt>
      <trkpt lat="46.09865" lon="-1.10718">
        <ele>13</ele>
        <time>2015-04-27T08:48:46.000Z</time>
      </trkpt>
      <trkpt lat="46.09857" lon="-1.10701">
        <ele>13</ele>
        <time>2015-04-27T08:48:56.000Z</time>
      </trkpt>
      <trkpt lat="46.09853" lon="-1.10692">
        <ele>13</ele>
        <time>2015-04-27T08:49:04.000Z</time>
      </trkpt>
      <trkpt lat="46.09851" lon="-1.10685">
        <ele>13</ele>
        <time>2015-04-27T08:49:10.000Z</time>
      </trkpt>
      <trkpt lat="46.09842" lon="-1.10672">
        <ele>13</ele>
        <time>2015-04-27T08:49:19.000Z</time>
      </trkpt>
      <trkpt lat="46.09833" lon="-1.10654">
        <ele>12.6</ele>
        <time>2015-04-27T08:49:30.000Z</time>
      </trkpt>
      <trkpt lat="46.09823" lon="-1.10636">
        <ele>12.4</ele>
        <time>2015-04-27T08:49:42.000Z</time>
      </trkpt>
      <trkpt lat="46.09814" lon="-1.10618">
        <ele>12.4</ele>
        <time>2015-04-27T08:49:53.000Z</time>
      </trkpt>
      <trkpt lat="46.09806" lon="-1.10603">
        <ele>12</ele>
        <time>2015-04-27T08:50:02.000Z</time>
      </trkpt>
      <trkpt lat="46.09795" lon="-1.10584">
        <ele>12</ele>
        <time>2015-04-27T08:50:14.000Z</time>
      </trkpt>
      <trkpt lat="46.09787" lon="-1.10567">
        <ele>12.2</ele>
        <time>2015-04-27T08:50:24.000Z</time>
      </trkpt>
      <trkpt lat="46.0978" lon="-1.10554">
        <ele>12.1</ele>
        <time>2015-04-27T08:50:32.000Z</time>
      </trkpt>
      <trkpt lat="46.0977" lon="-1.10533">
        <ele>12</ele>
        <time>2015-04-27T08:50:44.000Z</time>
      </trkpt>
      <trkpt lat="46.09761" lon="-1.10515">
        <ele>12</ele>
        <time>2015-04-27T08:50:55.000Z</time>
      </trkpt>
      <trkpt lat="46.09753" lon="-1.10502">
        <ele>12</ele>
        <time>2015-04-27T08:51:03.000Z</time>
      </trkpt>
      <trkpt lat="46.09743" lon="-1.10484">
        <ele>11.2</ele>
        <time>2015-04-27T08:51:14.000Z</time>
      </trkpt>
      <trkpt lat="46.09732" lon="-1.10462">
        <ele>10.7</ele>
        <time>2015-04-27T08:51:27.000Z</time>
      </trkpt>
      <trkpt lat="46.09721" lon="-1.10441">
        <ele>11</ele>
        <time>2015-04-27T08:51:40.000Z</time>
      </trkpt>
      <trkpt lat="46.09712" lon="-1.10425">
        <ele>10.9</ele>
        <time>2015-04-27T08:51:51.000Z</time>
      </trkpt>
      <trkpt lat="46.09701" lon="-1.10407">
        <ele>11</ele>
        <time>2015-04-27T08:52:02.000Z</time>
      </trkpt>
      <trkpt lat="46.09692" lon="-1.1039">
        <ele>11</ele>
        <time>2015-04-27T08:52:13.000Z</time>
      </trkpt>
      <trkpt lat="46.09683" lon="-1.10373">
        <ele>11</ele>
        <time>2015-04-27T08:52:24.000Z</time>
      </trkpt>
      <trkpt lat="46.09673" lon="-1.10353">
        <ele>11</ele>
        <time>2015-04-27T08:52:36.000Z</time>
      </trkpt>
      <trkpt lat="46.09665" lon="-1.10338">
        <ele>11</ele>
        <time>2015-04-27T08:52:46.000Z</time>
      </trkpt>
      <trkpt lat="46.09655" lon="-1.10321">
        <ele>11</ele>
        <time>2015-04-27T08:52:57.000Z</time>
      </trkpt>
      <trkpt lat="46.09645" lon="-1.10311">
        <ele>11</ele>
        <time>2015-04-27T08:53:05.000Z</time>
      </trkpt>
      <trkpt lat="46.09635" lon="-1.10302">
        <ele>10.7</ele>
        <time>2015-04-27T08:53:13.000Z</time>
      </trkpt>
      <trkpt lat="46.09623" lon="-1.10293">
        <ele>10.2</ele>
        <time>2015-04-27T08:53:22.000Z</time>
      </trkpt>
      <trkpt lat="46.09606" lon="-1.10281">
        <ele>10</ele>
        <time>2015-04-27T08:53:35.000Z</time>
      </trkpt>
      <trkpt lat="46.09598" lon="-1.10273">
        <ele>10</ele>
        <time>2015-04-27T08:53:42.000Z</time>
      </trkpt>
      <trkpt lat="46.09588" lon="-1.10261">
        <ele>10</ele>
        <time>2015-04-27T08:53:51.000Z</time>
      </trkpt>
      <trkpt lat="46.09578" lon="-1.10244">
        <ele>9.4</ele>
        <time>2015-04-27T08:54:01.000Z</time>
      </trkpt>
      <trkpt lat="46.09569" lon="-1.1023">
        <ele>8.6</ele>
        <time>2015-04-27T08:54:10.000Z</time>
      </trkpt>
      <trkpt lat="46.0956" lon="-1.10214">
        <ele>8.4</ele>
        <time>2015-04-27T08:54:20.000Z</time>
      </trkpt>
      <trkpt lat="46.09549" lon="-1.10198">
        <ele>8.4</ele>
        <time>2015-04-27T08:54:31.000Z</time>
      </trkpt>
      <trkpt lat="46.09538" lon="-1.1018">
        <ele>7.7</ele>
        <time>2015-04-27T08:54:43.000Z</time>
      </trkpt>
      <trkpt lat="46.0953" lon="-1.10167">
        <ele>7.2</ele>
        <time>2015-04-27T08:54:52.000Z</time>
      </trkpt>
      <trkpt lat="46.09521" lon="-1.10152">
        <ele>6.8</ele>
        <time>2015-04-27T08:55:02.000Z</time>
      </trkpt>
      <trkpt lat="46.09511" lon="-1.1014">
        <ele>6.2</ele>
        <time>2015-04-27T08:55:12.000Z</time>
      </trkpt>
      <trkpt lat="46.09505" lon="-1.10137">
        <ele>5.4</ele>
        <time>2015-04-27T08:55:20.000Z</time>
      </trkpt>
      <trkpt lat="46.09502" lon="-1.10137">
        <ele>5</ele>
        <time>2015-04-27T08:55:39.000Z</time>
      </trkpt>
      <trkpt lat="46.095" lon="-1.10138">
        <ele>5</ele>
        <time>2015-04-27T08:55:44.000Z</time>
      </trkpt>
      <trkpt lat="46.09498" lon="-1.10137">
        <ele>4.8</ele>
        <time>2015-04-27T08:55:54.000Z</time>
      </trkpt>
      <trkpt lat="46.09494" lon="-1.10137">
        <ele>4.8</ele>
        <time>2015-04-27T08:56:27.000Z</time>
      </trkpt>
      <trkpt lat="46.09495" lon="-1.10137">
        <ele>4.8</ele>
        <time>2015-04-27T08:58:37.000Z</time>
      </trkpt>
      <trkpt lat="46.09499" lon="-1.10137">
        <ele>4.8</ele>
        <time>2015-04-27T08:59:46.000Z</time>
      </trkpt>
      <trkpt lat="46.09502" lon="-1.10138">
        <ele>5.2</ele>
        <time>2015-04-27T08:59:52.000Z</time>
      </trkpt>
      <trkpt lat="46.09509" lon="-1.10141">
        <ele>6</ele>
        <time>2015-04-27T09:00:00.000Z</time>
      </trkpt>
      <trkpt lat="46.09516" lon="-1.10148">
        <ele>6.5</ele>
        <time>2015-04-27T09:00:09.000Z</time>
      </trkpt>
      <trkpt lat="46.09521" lon="-1.10156">
        <ele>6.7</ele>
        <time>2015-04-27T09:00:16.000Z</time>
      </trkpt>
      <trkpt lat="46.09528" lon="-1.10168">
        <ele>7</ele>
        <time>2015-04-27T09:00:25.000Z</time>
      </trkpt>
      <trkpt lat="46.09537" lon="-1.10185">
        <ele>7.7</ele>
        <time>2015-04-27T09:00:36.000Z</time>
      </trkpt>
      <trkpt lat="46.09546" lon="-1.102">
        <ele>8.2</ele>
        <time>2015-04-27T09:00:47.000Z</time>
      </trkpt>
      <trkpt lat="46.09551" lon="-1.1021">
        <ele>8.2</ele>
        <time>2015-04-27T09:00:53.000Z</time>
      </trkpt>
      <trkpt lat="46.09559" lon="-1.10221">
        <ele>8.2</ele>
        <time>2015-04-27T09:01:01.000Z</time>
      </trkpt>
      <trkpt lat="46.09567" lon="-1.10231">
        <ele>8.5</ele>
        <time>2015-04-27T09:01:08.000Z</time>
      </trkpt>
      <trkpt lat="46.09575" lon="-1.10245">
        <ele>9.3</ele>
        <time>2015-04-27T09:01:17.000Z</time>
      </trkpt>
      <trkpt lat="46.09587" lon="-1.10265">
        <ele>10</ele>
        <time>2015-04-27T09:01:30.000Z</time>
      </trkpt>
      <trkpt lat="46.09597" lon="-1.10276">
        <ele>10</ele>
        <time>2015-04-27T09:01:39.000Z</time>
      </trkpt>
      <trkpt lat="46.09605" lon="-1.10282">
        <ele>10</ele>
        <time>2015-04-27T09:01:46.000Z</time>
      </trkpt>
      <trkpt lat="46.09615" lon="-1.1029">
        <ele>10.1</ele>
        <time>2015-04-27T09:01:54.000Z</time>
      </trkpt>
      <trkpt lat="46.09623" lon="-1.10296">
        <ele>10.3</ele>
        <time>2015-04-27T09:02:01.000Z</time>
      </trkpt>
      <trkpt lat="46.09636" lon="-1.10304">
        <ele>10.8</ele>
        <time>2015-04-27T09:02:11.000Z</time>
      </trkpt>
      <trkpt lat="46.09645" lon="-1.10315">
        <ele>11</ele>
        <time>2015-04-27T09:02:19.000Z</time>
      </trkpt>
      <trkpt lat="46.09656" lon="-1.10328">
        <ele>11</ele>
        <time>2015-04-27T09:02:27.000Z</time>
      </trkpt>
      <trkpt lat="46.09667" lon="-1.10346">
        <ele>11</ele>
        <time>2015-04-27T09:02:37.000Z</time>
      </trkpt>
      <trkpt lat="46.09676" lon="-1.10363">
        <ele>11</ele>
        <time>2015-04-27T09:02:46.000Z</time>
      </trkpt>
      <trkpt lat="46.09686" lon="-1.1038">
        <ele>11</ele>
        <time>2015-04-27T09:02:55.000Z</time>
      </trkpt>
      <trkpt lat="46.09695" lon="-1.10397">
        <ele>11</ele>
        <time>2015-04-27T09:03:04.000Z</time>
      </trkpt>
      <trkpt lat="46.09705" lon="-1.10419">
        <ele>10.9</ele>
        <time>2015-04-27T09:03:15.000Z</time>
      </trkpt>
      <trkpt lat="46.09716" lon="-1.10442">
        <ele>10.8</ele>
        <time>2015-04-27T09:03:27.000Z</time>
      </trkpt>
      <trkpt lat="46.09726" lon="-1.10458">
        <ele>10.7</ele>
        <time>2015-04-27T09:03:36.000Z</time>
      </trkpt>
      <trkpt lat="46.09736" lon="-1.10477">
        <ele>10.7</ele>
        <time>2015-04-27T09:03:46.000Z</time>
      </trkpt>
      <trkpt lat="46.09747" lon="-1.10498">
        <ele>11.8</ele>
        <time>2015-04-27T09:03:57.000Z</time>
      </trkpt>
      <trkpt lat="46.09758" lon="-1.10516">
        <ele>12</ele>
        <time>2015-04-27T09:04:07.000Z</time>
      </trkpt>
      <trkpt lat="46.09768" lon="-1.10534">
        <ele>12</ele>
        <time>2015-04-27T09:04:17.000Z</time>
      </trkpt>
      <trkpt lat="46.09776" lon="-1.10552">
        <ele>12</ele>
        <time>2015-04-27T09:04:26.000Z</time>
      </trkpt>
      <trkpt lat="46.09786" lon="-1.1057">
        <ele>12.1</ele>
        <time>2015-04-27T09:04:36.000Z</time>
      </trkpt>
      <trkpt lat="46.09794" lon="-1.10587">
        <ele>12</ele>
        <time>2015-04-27T09:04:45.000Z</time>
      </trkpt>
      <trkpt lat="46.09804" lon="-1.10605">
        <ele>12</ele>
        <time>2015-04-27T09:04:55.000Z</time>
      </trkpt>
      <trkpt lat="46.09812" lon="-1.10622">
        <ele>12.4</ele>
        <time>2015-04-27T09:05:04.000Z</time>
      </trkpt>
      <trkpt lat="46.09822" lon="-1.10637">
        <ele>12.4</ele>
        <time>2015-04-27T09:05:13.000Z</time>
      </trkpt>
      <trkpt lat="46.0983" lon="-1.10651">
        <ele>12.4</ele>
        <time>2015-04-27T09:05:21.000Z</time>
      </trkpt>
      <trkpt lat="46.09837" lon="-1.10667">
        <ele>13</ele>
        <time>2015-04-27T09:05:30.000Z</time>
      </trkpt>
      <trkpt lat="46.09846" lon="-1.10683">
        <ele>13</ele>
        <time>2015-04-27T09:05:40.000Z</time>
      </trkpt>
      <trkpt lat="46.09853" lon="-1.10698">
        <ele>13</ele>
        <time>2015-04-27T09:05:49.000Z</time>
      </trkpt>
      <trkpt lat="46.09862" lon="-1.10716">
        <ele>13</ele>
        <time>2015-04-27T09:06:00.000Z</time>
      </trkpt>
      <trkpt lat="46.09873" lon="-1.10736">
        <ele>12.5</ele>
        <time>2015-04-27T09:06:12.000Z</time>
      </trkpt>
      <trkpt lat="46.09879" lon="-1.10747">
        <ele>12.1</ele>
        <time>2015-04-27T09:06:19.000Z</time>
      </trkpt>
      <trkpt lat="46.09886" lon="-1.1076">
        <ele>12</ele>
        <time>2015-04-27T09:06:27.000Z</time>
      </trkpt>
      <trkpt lat="46.09895" lon="-1.10776">
        <ele>12</ele>
        <time>2015-04-27T09:06:37.000Z</time>
      </trkpt>
      <trkpt lat="46.09901" lon="-1.1079">
        <ele>12.2</ele>
        <time>2015-04-27T09:06:45.000Z</time>
      </trkpt>
      <trkpt lat="46.09906" lon="-1.10814">
        <ele>12.3</ele>
        <time>2015-04-27T09:06:57.000Z</time>
      </trkpt>
      <trkpt lat="46.09912" lon="-1.10826">
        <ele>12</ele>
        <time>2015-04-27T09:07:06.000Z</time>
      </trkpt>
      <trkpt lat="46.09915" lon="-1.10833">
        <ele>12</ele>
        <time>2015-04-27T09:07:12.000Z</time>
      </trkpt>
      <trkpt lat="46.09919" lon="-1.10845">
        <ele>11.6</ele>
        <time>2015-04-27T09:07:19.000Z</time>
      </trkpt>
      <trkpt lat="46.09929" lon="-1.10859">
        <ele>11.1</ele>
        <time>2015-04-27T09:07:29.000Z</time>
      </trkpt>
      <trkpt lat="46.09941" lon="-1.10865">
        <ele>11</ele>
        <time>2015-04-27T09:07:38.000Z</time>
      </trkpt>
      <trkpt lat="46.09951" lon="-1.10877">
        <ele>11.1</ele>
        <time>2015-04-27T09:07:47.000Z</time>
      </trkpt>
      <trkpt lat="46.09962" lon="-1.10897">
        <ele>11.3</ele>
        <time>2015-04-27T09:07:59.000Z</time>
      </trkpt>
      <trkpt lat="46.09968" lon="-1.10909">
        <ele>11.1</ele>
        <time>2015-04-27T09:08:06.000Z</time>
      </trkpt>
      <trkpt lat="46.09978" lon="-1.10926">
        <ele>10.7</ele>
        <time>2015-04-27T09:08:16.000Z</time>
      </trkpt>
      <trkpt lat="46.09985" lon="-1.1094">
        <ele>10.6</ele>
        <time>2015-04-27T09:08:24.000Z</time>
      </trkpt>
      <trkpt lat="46.09992" lon="-1.10954">
        <ele>10.5</ele>
        <time>2015-04-27T09:08:32.000Z</time>
      </trkpt>
      <trkpt lat="46.10002" lon="-1.10971">
        <ele>10</ele>
        <time>2015-04-27T09:08:42.000Z</time>
      </trkpt>
      <trkpt lat="46.10009" lon="-1.10985">
        <ele>10.1</ele>
        <time>2015-04-27T09:08:50.000Z</time>
      </trkpt>
      <trkpt lat="46.10018" lon="-1.11002">
        <ele>10.6</ele>
        <time>2015-04-27T09:09:00.000Z</time>
      </trkpt>
      <trkpt lat="46.10027" lon="-1.11018">
        <ele>10.3</ele>
        <time>2015-04-27T09:09:09.000Z</time>
      </trkpt>
      <trkpt lat="46.10036" lon="-1.11037">
        <ele>9.8</ele>
        <time>2015-04-27T09:09:20.000Z</time>
      </trkpt>
      <trkpt lat="46.10043" lon="-1.1105">
        <ele>9.7</ele>
        <time>2015-04-27T09:09:28.000Z</time>
      </trkpt>
      <trkpt lat="46.10052" lon="-1.11065">
        <ele>9.6</ele>
        <time>2015-04-27T09:09:37.000Z</time>
      </trkpt>
      <trkpt lat="46.10061" lon="-1.1108">
        <ele>9.3</ele>
        <time>2015-04-27T09:09:46.000Z</time>
      </trkpt>
      <trkpt lat="46.10071" lon="-1.11095">
        <ele>9.6</ele>
        <time>2015-04-27T09:09:56.000Z</time>
      </trkpt>
      <trkpt lat="46.10084" lon="-1.11114">
        <ele>9.9</ele>
        <time>2015-04-27T09:10:08.000Z</time>
      </trkpt>
      <trkpt lat="46.10093" lon="-1.11128">
        <ele>9.6</ele>
        <time>2015-04-27T09:10:17.000Z</time>
      </trkpt>
      <trkpt lat="46.10103" lon="-1.11142">
        <ele>9.6</ele>
        <time>2015-04-27T09:10:26.000Z</time>
      </trkpt>
      <trkpt lat="46.10115" lon="-1.11158">
        <ele>9.3</ele>
        <time>2015-04-27T09:10:37.000Z</time>
      </trkpt>
      <trkpt lat="46.10117" lon="-1.11159">
        <ele>9.3</ele>
        <time>2015-04-27T09:10:38.000Z</time>
      </trkpt>
      <trkpt lat="46.10127" lon="-1.11173">
        <ele>8.8</ele>
        <time>2015-04-27T09:10:47.000Z</time>
      </trkpt>
      <trkpt lat="46.1014" lon="-1.11188">
        <ele>9</ele>
        <time>2015-04-27T09:10:58.000Z</time>
      </trkpt>
      <trkpt lat="46.10154" lon="-1.11205">
        <ele>8.6</ele>
        <time>2015-04-27T09:11:10.000Z</time>
      </trkpt>
      <trkpt lat="46.10165" lon="-1.11217">
        <ele>8.2</ele>
        <time>2015-04-27T09:11:19.000Z</time>
      </trkpt>
      <trkpt lat="46.10177" lon="-1.1123">
        <ele>8</ele>
        <time>2015-04-27T09:11:30.000Z</time>
      </trkpt>
      <trkpt lat="46.10188" lon="-1.11242">
        <ele>8</ele>
        <time>2015-04-27T09:11:39.000Z</time>
      </trkpt>
      <trkpt lat="46.10199" lon="-1.11252">
        <ele>7.6</ele>
        <time>2015-04-27T09:11:48.000Z</time>
      </trkpt>
      <trkpt lat="46.10213" lon="-1.11264">
        <ele>6.8</ele>
        <time>2015-04-27T09:11:59.000Z</time>
      </trkpt>
      <trkpt lat="46.10227" lon="-1.11277">
        <ele>7.1</ele>
        <time>2015-04-27T09:12:10.000Z</time>
      </trkpt>
      <trkpt lat="46.10241" lon="-1.11288">
        <ele>7.3</ele>
        <time>2015-04-27T09:12:21.000Z</time>
      </trkpt>
      <trkpt lat="46.10254" lon="-1.11299">
        <ele>7.2</ele>
        <time>2015-04-27T09:12:31.000Z</time>
      </trkpt>
      <trkpt lat="46.10261" lon="-1.11305">
        <ele>7</ele>
        <time>2015-04-27T09:12:36.000Z</time>
      </trkpt>
      <trkpt lat="46.1027" lon="-1.11314">
        <ele>7</ele>
        <time>2015-04-27T09:12:43.000Z</time>
      </trkpt>
      <trkpt lat="46.10285" lon="-1.11324">
        <ele>7</ele>
        <time>2015-04-27T09:12:54.000Z</time>
      </trkpt>
      <trkpt lat="46.10296" lon="-1.11332">
        <ele>7</ele>
        <time>2015-04-27T09:13:03.000Z</time>
      </trkpt>
      <trkpt lat="46.10311" lon="-1.11342">
        <ele>7</ele>
        <time>2015-04-27T09:13:14.000Z</time>
      </trkpt>
      <trkpt lat="46.10324" lon="-1.11351">
        <ele>7</ele>
        <time>2015-04-27T09:13:23.000Z</time>
      </trkpt>
      <trkpt lat="46.10337" lon="-1.11359">
        <ele>6.9</ele>
        <time>2015-04-27T09:13:33.000Z</time>
      </trkpt>
      <trkpt lat="46.10352" lon="-1.11367">
        <ele>6.4</ele>
        <time>2015-04-27T09:13:43.000Z</time>
      </trkpt>
      <trkpt lat="46.10365" lon="-1.11374">
        <ele>6.5</ele>
        <time>2015-04-27T09:13:52.000Z</time>
      </trkpt>
      <trkpt lat="46.10373" lon="-1.11378">
        <ele>6.8</ele>
        <time>2015-04-27T09:13:58.000Z</time>
      </trkpt>
      <trkpt lat="46.10384" lon="-1.11389">
        <ele>7</ele>
        <time>2015-04-27T09:14:06.000Z</time>
      </trkpt>
      <trkpt lat="46.10384" lon="-1.11411">
        <ele>6.8</ele>
        <time>2015-04-27T09:14:16.000Z</time>
      </trkpt>
      <trkpt lat="46.10381" lon="-1.11435">
        <ele>6.2</ele>
        <time>2015-04-27T09:14:28.000Z</time>
      </trkpt>
      <trkpt lat="46.10378" lon="-1.11462">
        <ele>6</ele>
        <time>2015-04-27T09:14:41.000Z</time>
      </trkpt>
      <trkpt lat="46.10374" lon="-1.11488">
        <ele>6.3</ele>
        <time>2015-04-27T09:14:53.000Z</time>
      </trkpt>
      <trkpt lat="46.1037" lon="-1.11509">
        <ele>6.7</ele>
        <time>2015-04-27T09:15:03.000Z</time>
      </trkpt>
      <trkpt lat="46.10366" lon="-1.11535">
        <ele>6.8</ele>
        <time>2015-04-27T09:15:16.000Z</time>
      </trkpt>
      <trkpt lat="46.10364" lon="-1.11556">
        <ele>6.9</ele>
        <time>2015-04-27T09:15:26.000Z</time>
      </trkpt>
      <trkpt lat="46.10361" lon="-1.11574">
        <ele>7</ele>
        <time>2015-04-27T09:15:35.000Z</time>
      </trkpt>
      <trkpt lat="46.10358" lon="-1.11597">
        <ele>6.6</ele>
        <time>2015-04-27T09:15:46.000Z</time>
      </trkpt>
      <trkpt lat="46.10354" lon="-1.11616">
        <ele>6.2</ele>
        <time>2015-04-27T09:15:55.000Z</time>
      </trkpt>
      <trkpt lat="46.10351" lon="-1.11634">
        <ele>6.4</ele>
        <time>2015-04-27T09:16:04.000Z</time>
      </trkpt>
      <trkpt lat="46.10346" lon="-1.11653">
        <ele>6.5</ele>
        <time>2015-04-27T09:16:13.000Z</time>
      </trkpt>
      <trkpt lat="46.10342" lon="-1.1167">
        <ele>6.6</ele>
        <time>2015-04-27T09:16:22.000Z</time>
      </trkpt>
      <trkpt lat="46.10329" lon="-1.1171">
        <ele>6</ele>
        <time>2015-04-27T09:16:43.000Z</time>
      </trkpt>
      <trkpt lat="46.10322" lon="-1.11733">
        <ele>6.2</ele>
        <time>2015-04-27T09:16:55.000Z</time>
      </trkpt>
      <trkpt lat="46.10316" lon="-1.11757">
        <ele>6.2</ele>
        <time>2015-04-27T09:17:07.000Z</time>
      </trkpt>
      <trkpt lat="46.10311" lon="-1.11783">
        <ele>6.6</ele>
        <time>2015-04-27T09:17:19.000Z</time>
      </trkpt>
      <trkpt lat="46.10312" lon="-1.1181">
        <ele>5.9</ele>
        <time>2015-04-27T09:17:31.000Z</time>
      </trkpt>
      <trkpt lat="46.10315" lon="-1.1182">
        <ele>5.7</ele>
        <time>2015-04-27T09:17:38.000Z</time>
      </trkpt>
      <trkpt lat="46.10318" lon="-1.11825">
        <ele>5.6</ele>
        <time>2015-04-27T09:20:40.000Z</time>
      </trkpt>
      <trkpt lat="46.10323" lon="-1.11825">
        <ele>5.7</ele>
        <time>2015-04-27T09:20:46.000Z</time>
      </trkpt>
      <trkpt lat="46.10327" lon="-1.11825">
        <ele>5.8</ele>
        <time>2015-04-27T09:20:55.000Z</time>
      </trkpt>
      <trkpt lat="46.10333" lon="-1.11826">
        <ele>6</ele>
        <time>2015-04-27T09:21:02.000Z</time>
      </trkpt>
      <trkpt lat="46.10339" lon="-1.11826">
        <ele>6</ele>
        <time>2015-04-27T09:21:09.000Z</time>
      </trkpt>
      <trkpt lat="46.1035" lon="-1.11828">
        <ele>6</ele>
        <time>2015-04-27T09:21:19.000Z</time>
      </trkpt>
      <trkpt lat="46.10358" lon="-1.11828">
        <ele>6</ele>
        <time>2015-04-27T09:21:27.000Z</time>
      </trkpt>
      <trkpt lat="46.10373" lon="-1.11829">
        <ele>5.6</ele>
        <time>2015-04-27T09:21:39.000Z</time>
      </trkpt>
      <trkpt lat="46.10386" lon="-1.1183">
        <ele>5.1</ele>
        <time>2015-04-27T09:21:49.000Z</time>
      </trkpt>
      <trkpt lat="46.104" lon="-1.1183">
        <ele>5</ele>
        <time>2015-04-27T09:21:59.000Z</time>
      </trkpt>
      <trkpt lat="46.10414" lon="-1.1183">
        <ele>4.9</ele>
        <time>2015-04-27T09:22:10.000Z</time>
      </trkpt>
      <trkpt lat="46.10429" lon="-1.11831">
        <ele>4.5</ele>
        <time>2015-04-27T09:22:21.000Z</time>
      </trkpt>
      <trkpt lat="46.10441" lon="-1.11832">
        <ele>4.1</ele>
        <time>2015-04-27T09:22:30.000Z</time>
      </trkpt>
      <trkpt lat="46.10456" lon="-1.11833">
        <ele>4</ele>
        <time>2015-04-27T09:22:41.000Z</time>
      </trkpt>
      <trkpt lat="46.1047" lon="-1.11835">
        <ele>4</ele>
        <time>2015-04-27T09:22:52.000Z</time>
      </trkpt>
      <trkpt lat="46.10473" lon="-1.11836">
        <ele>3.9</ele>
        <time>2015-04-27T09:22:59.000Z</time>
      </trkpt>
      <trkpt lat="46.10479" lon="-1.11842">
        <ele>3.5</ele>
        <time>2015-04-27T09:23:05.000Z</time>
      </trkpt>
      <trkpt lat="46.10482" lon="-1.11848">
        <ele>3.3</ele>
        <time>2015-04-27T09:23:09.000Z</time>
      </trkpt>
      <trkpt lat="46.10489" lon="-1.11864">
        <ele>3</ele>
        <time>2015-04-27T09:23:19.000Z</time>
      </trkpt>
      <trkpt lat="46.1049" lon="-1.11865">
        <ele>3</ele>
        <time>2015-04-27T09:23:20.000Z</time>
      </trkpt>
      <trkpt lat="46.10495" lon="-1.11882">
        <ele>3</ele>
        <time>2015-04-27T09:23:30.000Z</time>
      </trkpt>
      <trkpt lat="46.10498" lon="-1.11892">
        <ele>3.1</ele>
        <time>2015-04-27T09:23:36.000Z</time>
      </trkpt>
      <trkpt lat="46.10509" lon="-1.11889">
        <ele>3</ele>
        <time>2015-04-27T09:23:45.000Z</time>
      </trkpt>
      <trkpt lat="46.10526" lon="-1.11883">
        <ele>3</ele>
        <time>2015-04-27T09:23:57.000Z</time>
      </trkpt>
      <trkpt lat="46.10537" lon="-1.11873">
        <ele>3</ele>
        <time>2015-04-27T09:24:06.000Z</time>
      </trkpt>
      <trkpt lat="46.10544" lon="-1.11865">
        <ele>3</ele>
        <time>2015-04-27T09:24:13.000Z</time>
      </trkpt>
      <trkpt lat="46.10548" lon="-1.11853">
        <ele>3</ele>
        <time>2015-04-27T09:24:20.000Z</time>
      </trkpt>
      <trkpt lat="46.10555" lon="-1.11833">
        <ele>3</ele>
        <time>2015-04-27T09:24:30.000Z</time>
      </trkpt>
      <trkpt lat="46.10562" lon="-1.11809">
        <ele>3</ele>
        <time>2015-04-27T09:24:42.000Z</time>
      </trkpt>
      <trkpt lat="46.10567" lon="-1.11789">
        <ele>3</ele>
        <time>2015-04-27T09:24:52.000Z</time>
      </trkpt>
      <trkpt lat="46.10572" lon="-1.11767">
        <ele>3</ele>
        <time>2015-04-27T09:25:03.000Z</time>
      </trkpt>
      <trkpt lat="46.10577" lon="-1.11745">
        <ele>3</ele>
        <time>2015-04-27T09:25:14.000Z</time>
      </trkpt>
      <trkpt lat="46.10583" lon="-1.11724">
        <ele>3</ele>
        <time>2015-04-27T09:25:25.000Z</time>
      </trkpt>
      <trkpt lat="46.1059" lon="-1.11701">
        <ele>3</ele>
        <time>2015-04-27T09:25:37.000Z</time>
      </trkpt>
      <trkpt lat="46.10596" lon="-1.11687">
        <ele>3</ele>
        <time>2015-04-27T09:25:45.000Z</time>
      </trkpt>
      <trkpt lat="46.10605" lon="-1.11669">
        <ele>3</ele>
        <time>2015-04-27T09:25:56.000Z</time>
      </trkpt>
      <trkpt lat="46.10616" lon="-1.1165">
        <ele>3</ele>
        <time>2015-04-27T09:26:08.000Z</time>
      </trkpt>
      <trkpt lat="46.10628" lon="-1.11631">
        <ele>3</ele>
        <time>2015-04-27T09:26:21.000Z</time>
      </trkpt>
      <trkpt lat="46.10637" lon="-1.11617">
        <ele>3</ele>
        <time>2015-04-27T09:26:30.000Z</time>
      </trkpt>
      <trkpt lat="46.10647" lon="-1.11598">
        <ele>3.2</ele>
        <time>2015-04-27T09:26:42.000Z</time>
      </trkpt>
      <trkpt lat="46.10656" lon="-1.11581">
        <ele>3</ele>
        <time>2015-04-27T09:26:52.000Z</time>
      </trkpt>
      <trkpt lat="46.10665" lon="-1.11573">
        <ele>3</ele>
        <time>2015-04-27T09:27:00.000Z</time>
      </trkpt>
      <trkpt lat="46.10677" lon="-1.11571">
        <ele>3</ele>
        <time>2015-04-27T09:27:09.000Z</time>
      </trkpt>
      <trkpt lat="46.10689" lon="-1.11573">
        <ele>3</ele>
        <time>2015-04-27T09:27:18.000Z</time>
      </trkpt>
      <trkpt lat="46.10703" lon="-1.1158">
        <ele>3</ele>
        <time>2015-04-27T09:27:29.000Z</time>
      </trkpt>
      <trkpt lat="46.10716" lon="-1.11591">
        <ele>3</ele>
        <time>2015-04-27T09:27:39.000Z</time>
      </trkpt>
      <trkpt lat="46.10725" lon="-1.11601">
        <ele>3</ele>
        <time>2015-04-27T09:27:47.000Z</time>
      </trkpt>
      <trkpt lat="46.10738" lon="-1.11608">
        <ele>3</ele>
        <time>2015-04-27T09:27:57.000Z</time>
      </trkpt>
      <trkpt lat="46.10752" lon="-1.1161">
        <ele>3</ele>
        <time>2015-04-27T09:28:07.000Z</time>
      </trkpt>
      <trkpt lat="46.10767" lon="-1.11606">
        <ele>3.1</ele>
        <time>2015-04-27T09:28:18.000Z</time>
      </trkpt>
      <trkpt lat="46.10776" lon="-1.11612">
        <ele>3</ele>
        <time>2015-04-27T09:28:25.000Z</time>
      </trkpt>
      <trkpt lat="46.10787" lon="-1.11628">
        <ele>3</ele>
        <time>2015-04-27T09:28:36.000Z</time>
      </trkpt>
      <trkpt lat="46.10796" lon="-1.11638">
        <ele>3</ele>
        <time>2015-04-27T09:28:44.000Z</time>
      </trkpt>
      <trkpt lat="46.10805" lon="-1.11651">
        <ele>3</ele>
        <time>2015-04-27T09:28:53.000Z</time>
      </trkpt>
      <trkpt lat="46.10812" lon="-1.11671">
        <ele>3</ele>
        <time>2015-04-27T09:29:04.000Z</time>
      </trkpt>
      <trkpt lat="46.10819" lon="-1.11693">
        <ele>3</ele>
        <time>2015-04-27T09:29:15.000Z</time>
      </trkpt>
      <trkpt lat="46.10821" lon="-1.11701">
        <ele>3</ele>
        <time>2015-04-27T09:29:19.000Z</time>
      </trkpt>
      <trkpt lat="46.10827" lon="-1.11717">
        <ele>3</ele>
        <time>2015-04-27T09:29:27.000Z</time>
      </trkpt>
      <trkpt lat="46.10837" lon="-1.11736">
        <ele>2.9</ele>
        <time>2015-04-27T09:29:38.000Z</time>
      </trkpt>
      <trkpt lat="46.1085" lon="-1.11747">
        <ele>2.5</ele>
        <time>2015-04-27T09:29:48.000Z</time>
      </trkpt>
      <trkpt lat="46.10868" lon="-1.11747">
        <ele>2.1</ele>
        <time>2015-04-27T09:30:00.000Z</time>
      </trkpt>
      <trkpt lat="46.10886" lon="-1.11743">
        <ele>2.2</ele>
        <time>2015-04-27T09:30:12.000Z</time>
      </trkpt>
      <trkpt lat="46.10902" lon="-1.1174">
        <ele>2.7</ele>
        <time>2015-04-27T09:30:23.000Z</time>
      </trkpt>
      <trkpt lat="46.10915" lon="-1.11739">
        <ele>3</ele>
        <time>2015-04-27T09:30:32.000Z</time>
      </trkpt>
      <trkpt lat="46.10931" lon="-1.11744">
        <ele>3.1</ele>
        <time>2015-04-27T09:30:43.000Z</time>
      </trkpt>
      <trkpt lat="46.10941" lon="-1.11759">
        <ele>3</ele>
        <time>2015-04-27T09:30:52.000Z</time>
      </trkpt>
      <trkpt lat="46.10949" lon="-1.11783">
        <ele>2.8</ele>
        <time>2015-04-27T09:31:04.000Z</time>
      </trkpt>
      <trkpt lat="46.10958" lon="-1.11804">
        <ele>2.5</ele>
        <time>2015-04-27T09:31:15.000Z</time>
      </trkpt>
      <trkpt lat="46.1097" lon="-1.11824">
        <ele>3.3</ele>
        <time>2015-04-27T09:31:27.000Z</time>
      </trkpt>
      <trkpt lat="46.10982" lon="-1.11841">
        <ele>3.3</ele>
        <time>2015-04-27T09:31:38.000Z</time>
      </trkpt>
      <trkpt lat="46.10994" lon="-1.11858">
        <ele>3.1</ele>
        <time>2015-04-27T09:31:49.000Z</time>
      </trkpt>
      <trkpt lat="46.11005" lon="-1.11879">
        <ele>3.1</ele>
        <time>2015-04-27T09:32:01.000Z</time>
      </trkpt>
      <trkpt lat="46.11013" lon="-1.11901">
        <ele>3</ele>
        <time>2015-04-27T09:32:12.000Z</time>
      </trkpt>
      <trkpt lat="46.11019" lon="-1.11928">
        <ele>2.9</ele>
        <time>2015-04-27T09:32:25.000Z</time>
      </trkpt>
      <trkpt lat="46.11022" lon="-1.11951">
        <ele>2.8</ele>
        <time>2015-04-27T09:32:36.000Z</time>
      </trkpt>
      <trkpt lat="46.11024" lon="-1.11977">
        <ele>2.9</ele>
        <time>2015-04-27T09:32:48.000Z</time>
      </trkpt>
      <trkpt lat="46.11028" lon="-1.12003">
        <ele>2.9</ele>
        <time>2015-04-27T09:33:00.000Z</time>
      </trkpt>
      <trkpt lat="46.11036" lon="-1.12027">
        <ele>2.3</ele>
        <time>2015-04-27T09:33:12.000Z</time>
      </trkpt>
      <trkpt lat="46.11045" lon="-1.12046">
        <ele>2.9</ele>
        <time>2015-04-27T09:33:22.000Z</time>
      </trkpt>
      <trkpt lat="46.11059" lon="-1.12066">
        <ele>3</ele>
        <time>2015-04-27T09:33:34.000Z</time>
      </trkpt>
      <trkpt lat="46.11074" lon="-1.12082">
        <ele>3</ele>
        <time>2015-04-27T09:33:46.000Z</time>
      </trkpt>
      <trkpt lat="46.11089" lon="-1.12095">
        <ele>3</ele>
        <time>2015-04-27T09:33:58.000Z</time>
      </trkpt>
      <trkpt lat="46.11107" lon="-1.12105">
        <ele>3</ele>
        <time>2015-04-27T09:34:10.000Z</time>
      </trkpt>
      <trkpt lat="46.11118" lon="-1.12107">
        <ele>3</ele>
        <time>2015-04-27T09:34:18.000Z</time>
      </trkpt>
      <trkpt lat="46.11129" lon="-1.12105">
        <ele>3</ele>
        <time>2015-04-27T09:34:25.000Z</time>
      </trkpt>
      <trkpt lat="46.11147" lon="-1.12103">
        <ele>3</ele>
        <time>2015-04-27T09:34:37.000Z</time>
      </trkpt>
      <trkpt lat="46.11165" lon="-1.12108">
        <ele>3</ele>
        <time>2015-04-27T09:34:49.000Z</time>
      </trkpt>
      <trkpt lat="46.11181" lon="-1.12119">
        <ele>3</ele>
        <time>2015-04-27T09:35:00.000Z</time>
      </trkpt>
      <trkpt lat="46.11193" lon="-1.12136">
        <ele>3</ele>
        <time>2015-04-27T09:35:11.000Z</time>
      </trkpt>
      <trkpt lat="46.11203" lon="-1.12153">
        <ele>2.8</ele>
        <time>2015-04-27T09:35:21.000Z</time>
      </trkpt>
      <trkpt lat="46.11216" lon="-1.12171">
        <ele>2.4</ele>
        <time>2015-04-27T09:35:32.000Z</time>
      </trkpt>
      <trkpt lat="46.11225" lon="-1.12185">
        <ele>2.6</ele>
        <time>2015-04-27T09:35:41.000Z</time>
      </trkpt>
      <trkpt lat="46.11236" lon="-1.122">
        <ele>2.6</ele>
        <time>2015-04-27T09:35:51.000Z</time>
      </trkpt>
      <trkpt lat="46.11246" lon="-1.12214">
        <ele>2.7</ele>
        <time>2015-04-27T09:36:00.000Z</time>
      </trkpt>
      <trkpt lat="46.11258" lon="-1.12235">
        <ele>2.9</ele>
        <time>2015-04-27T09:36:12.000Z</time>
      </trkpt>
      <trkpt lat="46.11264" lon="-1.12253">
        <ele>3.1</ele>
        <time>2015-04-27T09:36:21.000Z</time>
      </trkpt>
      <trkpt lat="46.11264" lon="-1.12255">
        <ele>3.1</ele>
        <time>2015-04-27T09:36:22.000Z</time>
      </trkpt>
      <trkpt lat="46.1126" lon="-1.12266">
        <ele>3.4</ele>
        <time>2015-04-27T09:36:28.000Z</time>
      </trkpt>
      <trkpt lat="46.1126" lon="-1.1227">
        <ele>3.4</ele>
        <time>2015-04-27T09:36:30.000Z</time>
      </trkpt>
      <trkpt lat="46.11276" lon="-1.12284">
        <ele>3.3</ele>
        <time>2015-04-27T09:36:42.000Z</time>
      </trkpt>
      <trkpt lat="46.11286" lon="-1.12299">
        <ele>3.7</ele>
        <time>2015-04-27T09:36:51.000Z</time>
      </trkpt>
      <trkpt lat="46.11296" lon="-1.12317">
        <ele>4</ele>
        <time>2015-04-27T09:37:01.000Z</time>
      </trkpt>
      <trkpt lat="46.11307" lon="-1.12335">
        <ele>4</ele>
        <time>2015-04-27T09:37:12.000Z</time>
      </trkpt>
      <trkpt lat="46.1131" lon="-1.1234">
        <ele>4</ele>
        <time>2015-04-27T09:37:15.000Z</time>
      </trkpt>
      <trkpt lat="46.11309" lon="-1.12348">
        <ele>4</ele>
        <time>2015-04-27T09:37:19.000Z</time>
      </trkpt>
      <trkpt lat="46.11306" lon="-1.12364">
        <ele>4</ele>
        <time>2015-04-27T09:37:27.000Z</time>
      </trkpt>
      <trkpt lat="46.11315" lon="-1.12372">
        <ele>4</ele>
        <time>2015-04-27T09:37:34.000Z</time>
      </trkpt>
      <trkpt lat="46.11327" lon="-1.12382">
        <ele>4</ele>
        <time>2015-04-27T09:37:43.000Z</time>
      </trkpt>
      <trkpt lat="46.11338" lon="-1.12387">
        <ele>4</ele>
        <time>2015-04-27T09:37:51.000Z</time>
      </trkpt>
      <trkpt lat="46.11355" lon="-1.12385">
        <ele>4.1</ele>
        <time>2015-04-27T09:38:02.000Z</time>
      </trkpt>
      <trkpt lat="46.11373" lon="-1.12379">
        <ele>4.4</ele>
        <time>2015-04-27T09:38:14.000Z</time>
      </trkpt>
      <trkpt lat="46.1139" lon="-1.12374">
        <ele>4.5</ele>
        <time>2015-04-27T09:38:25.000Z</time>
      </trkpt>
      <trkpt lat="46.11408" lon="-1.12367">
        <ele>4.8</ele>
        <time>2015-04-27T09:38:37.000Z</time>
      </trkpt>
      <trkpt lat="46.11426" lon="-1.12362">
        <ele>5</ele>
        <time>2015-04-27T09:38:49.000Z</time>
      </trkpt>
      <trkpt lat="46.11442" lon="-1.12357">
        <ele>5</ele>
        <time>2015-04-27T09:39:00.000Z</time>
      </trkpt>
      <trkpt lat="46.11461" lon="-1.12352">
        <ele>4.6</ele>
        <time>2015-04-27T09:39:12.000Z</time>
      </trkpt>
      <trkpt lat="46.11475" lon="-1.12348">
        <ele>4</ele>
        <time>2015-04-27T09:39:21.000Z</time>
      </trkpt>
      <trkpt lat="46.1149" lon="-1.12341">
        <ele>3.1</ele>
        <time>2015-04-27T09:39:31.000Z</time>
      </trkpt>
      <trkpt lat="46.11501" lon="-1.12344">
        <ele>3.1</ele>
        <time>2015-04-27T09:39:38.000Z</time>
      </trkpt>
      <trkpt lat="46.11515" lon="-1.12348">
        <ele>3.5</ele>
        <time>2015-04-27T09:39:47.000Z</time>
      </trkpt>
      <trkpt lat="46.1153" lon="-1.12344">
        <ele>3.2</ele>
        <time>2015-04-27T09:39:57.000Z</time>
      </trkpt>
      <trkpt lat="46.11547" lon="-1.12341">
        <ele>2.8</ele>
        <time>2015-04-27T09:40:08.000Z</time>
      </trkpt>
      <trkpt lat="46.11564" lon="-1.1234">
        <ele>2.7</ele>
        <time>2015-04-27T09:40:19.000Z</time>
      </trkpt>
      <trkpt lat="46.1158" lon="-1.12342">
        <ele>2.9</ele>
        <time>2015-04-27T09:40:30.000Z</time>
      </trkpt>
      <trkpt lat="46.11599" lon="-1.12343">
        <ele>3.2</ele>
        <time>2015-04-27T09:40:42.000Z</time>
      </trkpt>
      <trkpt lat="46.1161" lon="-1.12336">
        <ele>2.4</ele>
        <time>2015-04-27T09:40:50.000Z</time>
      </trkpt>
      <trkpt lat="46.11621" lon="-1.12325">
        <ele>2</ele>
        <time>2015-04-27T09:40:59.000Z</time>
      </trkpt>
      <trkpt lat="46.11635" lon="-1.12321">
        <ele>2</ele>
        <time>2015-04-27T09:41:08.000Z</time>
      </trkpt>
      <trkpt lat="46.11649" lon="-1.1232">
        <ele>2</ele>
        <time>2015-04-27T09:41:17.000Z</time>
      </trkpt>
      <trkpt lat="46.11665" lon="-1.12321">
        <ele>2</ele>
        <time>2015-04-27T09:41:28.000Z</time>
      </trkpt>
      <trkpt lat="46.11684" lon="-1.12324">
        <ele>2</ele>
        <time>2015-04-27T09:41:41.000Z</time>
      </trkpt>
      <trkpt lat="46.11703" lon="-1.12327">
        <ele>2</ele>
        <time>2015-04-27T09:41:53.000Z</time>
      </trkpt>
      <trkpt lat="46.11716" lon="-1.12329">
        <ele>2</ele>
        <time>2015-04-27T09:42:02.000Z</time>
      </trkpt>
      <trkpt lat="46.11726" lon="-1.12331">
        <ele>2</ele>
        <time>2015-04-27T09:42:09.000Z</time>
      </trkpt>
      <trkpt lat="46.11738" lon="-1.12332">
        <ele>2</ele>
        <time>2015-04-27T09:42:17.000Z</time>
      </trkpt>
      <trkpt lat="46.11753" lon="-1.12333">
        <ele>2</ele>
        <time>2015-04-27T09:42:27.000Z</time>
      </trkpt>
      <trkpt lat="46.11771" lon="-1.12337">
        <ele>2.1</ele>
        <time>2015-04-27T09:42:39.000Z</time>
      </trkpt>
      <trkpt lat="46.11786" lon="-1.12341">
        <ele>2.3</ele>
        <time>2015-04-27T09:42:49.000Z</time>
      </trkpt>
      <trkpt lat="46.118" lon="-1.12344">
        <ele>2.4</ele>
        <time>2015-04-27T09:42:58.000Z</time>
      </trkpt>
      <trkpt lat="46.11815" lon="-1.12348">
        <ele>2.5</ele>
        <time>2015-04-27T09:43:08.000Z</time>
      </trkpt>
      <trkpt lat="46.11832" lon="-1.12352">
        <ele>2.7</ele>
        <time>2015-04-27T09:43:19.000Z</time>
      </trkpt>
      <trkpt lat="46.11843" lon="-1.12347">
        <ele>2.5</ele>
        <time>2015-04-27T09:43:27.000Z</time>
      </trkpt>
      <trkpt lat="46.11848" lon="-1.1233">
        <ele>2</ele>
        <time>2015-04-27T09:43:35.000Z</time>
      </trkpt>
      <trkpt lat="46.11853" lon="-1.12305">
        <ele>2</ele>
        <time>2015-04-27T09:43:47.000Z</time>
      </trkpt>
      <trkpt lat="46.11855" lon="-1.12301">
        <ele>2</ele>
        <time>2015-04-27T09:43:49.000Z</time>
      </trkpt>
      <trkpt lat="46.11866" lon="-1.12303">
        <ele>2</ele>
        <time>2015-04-27T09:43:56.000Z</time>
      </trkpt>
      <trkpt lat="46.1188" lon="-1.12307">
        <ele>2</ele>
        <time>2015-04-27T09:44:05.000Z</time>
      </trkpt>
      <trkpt lat="46.11899" lon="-1.12312">
        <ele>2</ele>
        <time>2015-04-27T09:44:17.000Z</time>
      </trkpt>
      <trkpt lat="46.11912" lon="-1.12317">
        <ele>2</ele>
        <time>2015-04-27T09:44:26.000Z</time>
      </trkpt>
      <trkpt lat="46.11927" lon="-1.12321">
        <ele>2</ele>
        <time>2015-04-27T09:44:36.000Z</time>
      </trkpt>
      <trkpt lat="46.11942" lon="-1.12327">
        <ele>2</ele>
        <time>2015-04-27T09:44:46.000Z</time>
      </trkpt>
      <trkpt lat="46.1196" lon="-1.12334">
        <ele>2</ele>
        <time>2015-04-27T09:44:58.000Z</time>
      </trkpt>
      <trkpt lat="46.11977" lon="-1.12343">
        <ele>2</ele>
        <time>2015-04-27T09:45:10.000Z</time>
      </trkpt>
      <trkpt lat="46.11991" lon="-1.12349">
        <ele>2</ele>
        <time>2015-04-27T09:45:20.000Z</time>
      </trkpt>
      <trkpt lat="46.12008" lon="-1.12357">
        <ele>2</ele>
        <time>2015-04-27T09:45:32.000Z</time>
      </trkpt>
      <trkpt lat="46.12026" lon="-1.12364">
        <ele>2.1</ele>
        <time>2015-04-27T09:45:44.000Z</time>
      </trkpt>
      <trkpt lat="46.12042" lon="-1.12369">
        <ele>2.1</ele>
        <time>2015-04-27T09:45:55.000Z</time>
      </trkpt>
      <trkpt lat="46.12061" lon="-1.12374">
        <ele>2.1</ele>
        <time>2015-04-27T09:46:07.000Z</time>
      </trkpt>
      <trkpt lat="46.12079" lon="-1.1238">
        <ele>2.6</ele>
        <time>2015-04-27T09:46:19.000Z</time>
      </trkpt>
      <trkpt lat="46.12094" lon="-1.12384">
        <ele>3</ele>
        <time>2015-04-27T09:46:29.000Z</time>
      </trkpt>
      <trkpt lat="46.12112" lon="-1.12391">
        <ele>3</ele>
        <time>2015-04-27T09:46:41.000Z</time>
      </trkpt>
      <trkpt lat="46.12126" lon="-1.12398">
        <ele>3</ele>
        <time>2015-04-27T09:46:51.000Z</time>
      </trkpt>
      <trkpt lat="46.12141" lon="-1.12407">
        <ele>3</ele>
        <time>2015-04-27T09:47:02.000Z</time>
      </trkpt>
      <trkpt lat="46.12154" lon="-1.12416">
        <ele>3</ele>
        <time>2015-04-27T09:47:11.000Z</time>
      </trkpt>
      <trkpt lat="46.1217" lon="-1.12426">
        <ele>3.1</ele>
        <time>2015-04-27T09:47:23.000Z</time>
      </trkpt>
      <trkpt lat="46.12187" lon="-1.12435">
        <ele>3.3</ele>
        <time>2015-04-27T09:47:35.000Z</time>
      </trkpt>
      <trkpt lat="46.12201" lon="-1.12443">
        <ele>3</ele>
        <time>2015-04-27T09:47:45.000Z</time>
      </trkpt>
      <trkpt lat="46.12217" lon="-1.12453">
        <ele>3</ele>
        <time>2015-04-27T09:47:56.000Z</time>
      </trkpt>
      <trkpt lat="46.12232" lon="-1.12462">
        <ele>3.1</ele>
        <time>2015-04-27T09:48:07.000Z</time>
      </trkpt>
      <trkpt lat="46.12249" lon="-1.12473">
        <ele>3.1</ele>
        <time>2015-04-27T09:48:19.000Z</time>
      </trkpt>
      <trkpt lat="46.12273" lon="-1.12487">
        <ele>3.7</ele>
        <time>2015-04-27T09:48:36.000Z</time>
      </trkpt>
      <trkpt lat="46.12289" lon="-1.12496">
        <ele>3.1</ele>
        <time>2015-04-27T09:48:47.000Z</time>
      </trkpt>
      <trkpt lat="46.12297" lon="-1.12506">
        <ele>3.6</ele>
        <time>2015-04-27T09:48:54.000Z</time>
      </trkpt>
      <trkpt lat="46.12309" lon="-1.12516">
        <ele>4.1</ele>
        <time>2015-04-27T09:49:03.000Z</time>
      </trkpt>
      <trkpt lat="46.12325" lon="-1.12526">
        <ele>4.3</ele>
        <time>2015-04-27T09:49:15.000Z</time>
      </trkpt>
      <trkpt lat="46.12336" lon="-1.12533">
        <ele>4.4</ele>
        <time>2015-04-27T09:49:23.000Z</time>
      </trkpt>
      <trkpt lat="46.12345" lon="-1.12538">
        <ele>4.6</ele>
        <time>2015-04-27T09:49:30.000Z</time>
      </trkpt>
      <trkpt lat="46.1236" lon="-1.12548">
        <ele>4.7</ele>
        <time>2015-04-27T09:49:41.000Z</time>
      </trkpt>
      <trkpt lat="46.12375" lon="-1.12558">
        <ele>4.6</ele>
        <time>2015-04-27T09:49:52.000Z</time>
      </trkpt>
      <trkpt lat="46.12392" lon="-1.12568">
        <ele>4.9</ele>
        <time>2015-04-27T09:50:04.000Z</time>
      </trkpt>
      <trkpt lat="46.12406" lon="-1.12577">
        <ele>5.1</ele>
        <time>2015-04-27T09:50:14.000Z</time>
      </trkpt>
      <trkpt lat="46.12417" lon="-1.12584">
        <ele>5</ele>
        <time>2015-04-27T09:50:22.000Z</time>
      </trkpt>
      <trkpt lat="46.12429" lon="-1.12593">
        <ele>5.2</ele>
        <time>2015-04-27T09:50:30.000Z</time>
      </trkpt>
      <trkpt lat="46.12441" lon="-1.12599">
        <ele>5.5</ele>
        <time>2015-04-27T09:50:38.000Z</time>
      </trkpt>
      <trkpt lat="46.12452" lon="-1.12604">
        <ele>5.4</ele>
        <time>2015-04-27T09:50:46.000Z</time>
      </trkpt>
      <trkpt lat="46.12462" lon="-1.1261">
        <ele>5.3</ele>
        <time>2015-04-27T09:50:53.000Z</time>
      </trkpt>
      <trkpt lat="46.12474" lon="-1.12618">
        <ele>5</ele>
        <time>2015-04-27T09:51:02.000Z</time>
      </trkpt>
      <trkpt lat="46.12484" lon="-1.12625">
        <ele>5.2</ele>
        <time>2015-04-27T09:51:09.000Z</time>
      </trkpt>
      <trkpt lat="46.12497" lon="-1.12634">
        <ele>5.7</ele>
        <time>2015-04-27T09:51:18.000Z</time>
      </trkpt>
      <trkpt lat="46.12512" lon="-1.12645">
        <ele>5.3</ele>
        <time>2015-04-27T09:51:29.000Z</time>
      </trkpt>
      <trkpt lat="46.12521" lon="-1.1265">
        <ele>5.3</ele>
        <time>2015-04-27T09:51:35.000Z</time>
      </trkpt>
      <trkpt lat="46.12537" lon="-1.12661">
        <ele>5.7</ele>
        <time>2015-04-27T09:51:46.000Z</time>
      </trkpt>
      <trkpt lat="46.12551" lon="-1.12671">
        <ele>5.6</ele>
        <time>2015-04-27T09:51:56.000Z</time>
      </trkpt>
      <trkpt lat="46.12564" lon="-1.1268">
        <ele>5</ele>
        <time>2015-04-27T09:52:05.000Z</time>
      </trkpt>
      <trkpt lat="46.12575" lon="-1.1269">
        <ele>4.8</ele>
        <time>2015-04-27T09:52:13.000Z</time>
      </trkpt>
      <trkpt lat="46.12589" lon="-1.12702">
        <ele>4.6</ele>
        <time>2015-04-27T09:52:23.000Z</time>
      </trkpt>
      <trkpt lat="46.126" lon="-1.12711">
        <ele>4.5</ele>
        <time>2015-04-27T09:52:31.000Z</time>
      </trkpt>
      <trkpt lat="46.12614" lon="-1.12724">
        <ele>4.9</ele>
        <time>2015-04-27T09:52:41.000Z</time>
      </trkpt>
      <trkpt lat="46.12627" lon="-1.12739">
        <ele>4.5</ele>
        <time>2015-04-27T09:52:51.000Z</time>
      </trkpt>
      <trkpt lat="46.12635" lon="-1.12754">
        <ele>4.6</ele>
        <time>2015-04-27T09:53:00.000Z</time>
      </trkpt>
      <trkpt lat="46.12641" lon="-1.12764">
        <ele>4.5</ele>
        <time>2015-04-27T09:53:06.000Z</time>
      </trkpt>
      <trkpt lat="46.1265" lon="-1.12781">
        <ele>3.9</ele>
        <time>2015-04-27T09:53:15.000Z</time>
      </trkpt>
      <trkpt lat="46.1266" lon="-1.12802">
        <ele>3.6</ele>
        <time>2015-04-27T09:53:25.000Z</time>
      </trkpt>
      <trkpt lat="46.12671" lon="-1.12822">
        <ele>3.5</ele>
        <time>2015-04-27T09:53:36.000Z</time>
      </trkpt>
      <trkpt lat="46.12683" lon="-1.12834">
        <ele>3.6</ele>
        <time>2015-04-27T09:53:45.000Z</time>
      </trkpt>
      <trkpt lat="46.12694" lon="-1.12848">
        <ele>4</ele>
        <time>2015-04-27T09:53:54.000Z</time>
      </trkpt>
      <trkpt lat="46.12702" lon="-1.12868">
        <ele>4</ele>
        <time>2015-04-27T09:54:04.000Z</time>
      </trkpt>
      <trkpt lat="46.12709" lon="-1.12889">
        <ele>4</ele>
        <time>2015-04-27T09:54:14.000Z</time>
      </trkpt>
      <trkpt lat="46.12717" lon="-1.12911">
        <ele>4</ele>
        <time>2015-04-27T09:54:25.000Z</time>
      </trkpt>
      <trkpt lat="46.12728" lon="-1.12928">
        <ele>4</ele>
        <time>2015-04-27T09:54:36.000Z</time>
      </trkpt>
      <trkpt lat="46.12733" lon="-1.1293">
        <ele>4</ele>
        <time>2015-04-27T09:54:41.000Z</time>
      </trkpt>
      <trkpt lat="46.12738" lon="-1.12931">
        <ele>4</ele>
        <time>2015-04-27T09:54:46.000Z</time>
      </trkpt>
      <trkpt lat="46.1274" lon="-1.12937">
        <ele>4</ele>
        <time>2015-04-27T09:54:50.000Z</time>
      </trkpt>
      <trkpt lat="46.12739" lon="-1.12943">
        <ele>4</ele>
        <time>2015-04-27T09:54:53.000Z</time>
      </trkpt>
      <trkpt lat="46.12742" lon="-1.12946">
        <ele>3.9</ele>
        <time>2015-04-27T09:54:58.000Z</time>
      </trkpt>
      <trkpt lat="46.12743" lon="-1.12948">
        <ele>3.9</ele>
        <time>2015-04-27T09:55:00.000Z</time>
      </trkpt>
      <trkpt lat="46.12743" lon="-1.12957">
        <ele>3.6</ele>
        <time>2015-04-27T09:55:07.000Z</time>
      </trkpt>
      <trkpt lat="46.12742" lon="-1.12958">
        <ele>3.5</ele>
        <time>2015-04-27T09:55:08.000Z</time>
      </trkpt>
      <trkpt lat="46.1274" lon="-1.12963">
        <ele>3.3</ele>
        <time>2015-04-27T09:55:11.000Z</time>
      </trkpt>
      <trkpt lat="46.12741" lon="-1.12967">
        <ele>3.2</ele>
        <time>2015-04-27T09:55:18.000Z</time>
      </trkpt>
      <trkpt lat="46.12741" lon="-1.12967">
        <ele>3.2</ele>
        <time>2015-04-27T09:55:30.000Z</time>
      </trkpt>
    </trkseg>
  </trk>
</gpx>